<?xml version="1.0" encoding="UTF-8" standalone="no" ?>
<gpx xmlns="http://www.topografix.com/GPX/1/1" xmlns:xsi="http://www.w3.org/2001/XMLSchema-instance" xsi:schemaLocation="http://www.topografix.com/GPX/1/1 http://www.topografix.com/GPX/1/1/gpx.xsd" version="1.1" creator="VisuGPX - https://www.visugpx.com">
  <metadata>
    <name>St cast</name>
  </metadata>
  <trk>
    <name><![CDATA[St cast_1]]></name>
    <trkseg>
      <trkpt lat="48.62736" lon="-2.25266">
        <ele>7</ele>
        <time>2019-04-02T13:26:06Z</time>
      </trkpt>
      <trkpt lat="48.6278" lon="-2.25112">
        <ele>8</ele>
        <time>2019-04-02T13:27:06Z</time>
      </trkpt>
      <trkpt lat="48.62968" lon="-2.25305">
        <ele>8</ele>
        <time>2019-04-02T13:28:06Z</time>
      </trkpt>
      <trkpt lat="48.62936" lon="-2.25391">
        <ele>9</ele>
        <time>2019-04-02T13:29:06Z</time>
      </trkpt>
      <trkpt lat="48.6288" lon="-2.25487">
        <ele>7</ele>
        <time>2019-04-02T13:30:06Z</time>
      </trkpt>
      <trkpt lat="48.62852" lon="-2.25586">
        <ele>7</ele>
        <time>2019-04-02T13:31:06Z</time>
      </trkpt>
      <trkpt lat="48.62767" lon="-2.25786">
        <ele>13</ele>
        <time>2019-04-02T13:32:06Z</time>
      </trkpt>
      <trkpt lat="48.62715" lon="-2.25859">
        <ele>18</ele>
        <time>2019-04-02T13:33:06Z</time>
      </trkpt>
      <trkpt lat="48.62666" lon="-2.25775">
        <ele>15</ele>
        <time>2019-04-02T13:34:06Z</time>
      </trkpt>
      <trkpt lat="48.62638" lon="-2.25719">
        <ele>17</ele>
        <time>2019-04-02T13:35:06Z</time>
      </trkpt>
      <trkpt lat="48.62622" lon="-2.257">
        <ele>18</ele>
        <time>2019-04-02T13:36:06Z</time>
      </trkpt>
      <trkpt lat="48.626" lon="-2.25799">
        <ele>22</ele>
        <time>2019-04-02T13:37:06Z</time>
      </trkpt>
      <trkpt lat="48.62574" lon="-2.25844">
        <ele>24</ele>
        <time>2019-04-02T13:38:06Z</time>
      </trkpt>
      <trkpt lat="48.62489" lon="-2.25884">
        <ele>32</ele>
        <time>2019-04-02T13:39:06Z</time>
      </trkpt>
      <trkpt lat="48.62445" lon="-2.25908">
        <ele>35</ele>
        <time>2019-04-02T13:40:06Z</time>
      </trkpt>
      <trkpt lat="48.62427" lon="-2.25929">
        <ele>36</ele>
        <time>2019-04-02T13:41:06Z</time>
      </trkpt>
      <trkpt lat="48.62374" lon="-2.25942">
        <ele>41</ele>
        <time>2019-04-02T13:42:06Z</time>
      </trkpt>
      <trkpt lat="48.62353" lon="-2.25975">
        <ele>43</ele>
        <time>2019-04-02T13:43:06Z</time>
      </trkpt>
      <trkpt lat="48.62351" lon="-2.26013">
        <ele>44</ele>
        <time>2019-04-02T13:44:06Z</time>
      </trkpt>
      <trkpt lat="48.62315" lon="-2.25929">
        <ele>46</ele>
        <time>2019-04-02T13:45:06Z</time>
      </trkpt>
      <trkpt lat="48.623" lon="-2.25863">
        <ele>48</ele>
        <time>2019-04-02T13:46:06Z</time>
      </trkpt>
      <trkpt lat="48.62237" lon="-2.25897">
        <ele>52</ele>
        <time>2019-04-02T13:47:06Z</time>
      </trkpt>
      <trkpt lat="48.62207" lon="-2.25874">
        <ele>53</ele>
        <time>2019-04-02T13:49:06Z</time>
      </trkpt>
      <trkpt lat="48.62156" lon="-2.25914">
        <ele>56</ele>
        <time>2019-04-02T13:50:06Z</time>
      </trkpt>
      <trkpt lat="48.62106" lon="-2.25953">
        <ele>58</ele>
        <time>2019-04-02T13:51:06Z</time>
      </trkpt>
      <trkpt lat="48.62071" lon="-2.25996">
        <ele>58</ele>
        <time>2019-04-02T13:52:06Z</time>
      </trkpt>
      <trkpt lat="48.62012" lon="-2.26032">
        <ele>58</ele>
        <time>2019-04-02T13:53:06Z</time>
      </trkpt>
      <trkpt lat="48.61889" lon="-2.26052">
        <ele>61</ele>
        <time>2019-04-02T13:54:06Z</time>
      </trkpt>
      <trkpt lat="48.6177" lon="-2.26056">
        <ele>60</ele>
        <time>2019-04-02T13:55:06Z</time>
      </trkpt>
      <trkpt lat="48.61683" lon="-2.26075">
        <ele>60</ele>
        <time>2019-04-02T13:56:06Z</time>
      </trkpt>
      <trkpt lat="48.61634" lon="-2.26071">
        <ele>61</ele>
        <time>2019-04-02T13:57:06Z</time>
      </trkpt>
      <trkpt lat="48.61652" lon="-2.26226">
        <ele>60</ele>
        <time>2019-04-02T13:58:06Z</time>
      </trkpt>
      <trkpt lat="48.61656" lon="-2.26311">
        <ele>61</ele>
        <time>2019-04-02T13:59:06Z</time>
      </trkpt>
      <trkpt lat="48.61556" lon="-2.26301">
        <ele>61</ele>
        <time>2019-04-02T14:00:06Z</time>
      </trkpt>
      <trkpt lat="48.61476" lon="-2.26322">
        <ele>63</ele>
        <time>2019-04-02T14:01:06Z</time>
      </trkpt>
      <trkpt lat="48.61424" lon="-2.26356">
        <ele>62</ele>
        <time>2019-04-02T14:02:06Z</time>
      </trkpt>
      <trkpt lat="48.61344" lon="-2.26421">
        <ele>60</ele>
        <time>2019-04-02T14:03:06Z</time>
      </trkpt>
      <trkpt lat="48.61307" lon="-2.26449">
        <ele>60</ele>
        <time>2019-04-02T14:04:06Z</time>
      </trkpt>
      <trkpt lat="48.61255" lon="-2.26494">
        <ele>60</ele>
        <time>2019-04-02T14:05:06Z</time>
      </trkpt>
      <trkpt lat="48.61215" lon="-2.265">
        <ele>59</ele>
        <time>2019-04-02T14:06:06Z</time>
      </trkpt>
      <trkpt lat="48.6115" lon="-2.26457">
        <ele>59</ele>
        <time>2019-04-02T14:07:06Z</time>
      </trkpt>
      <trkpt lat="48.61081" lon="-2.26426">
        <ele>61</ele>
        <time>2019-04-02T14:08:06Z</time>
      </trkpt>
      <trkpt lat="48.61071" lon="-2.26423">
        <ele>61</ele>
        <time>2019-04-02T14:09:06Z</time>
      </trkpt>
      <trkpt lat="48.60981" lon="-2.26436">
        <ele>62</ele>
        <time>2019-04-02T14:10:06Z</time>
      </trkpt>
      <trkpt lat="48.60885" lon="-2.26456">
        <ele>65</ele>
        <time>2019-04-02T14:11:06Z</time>
      </trkpt>
      <trkpt lat="48.60852" lon="-2.26486">
        <ele>65</ele>
        <time>2019-04-02T14:12:06Z</time>
      </trkpt>
      <trkpt lat="48.6082" lon="-2.26528">
        <ele>65</ele>
        <time>2019-04-02T14:13:06Z</time>
      </trkpt>
      <trkpt lat="48.60773" lon="-2.2652">
        <ele>65</ele>
        <time>2019-04-02T14:14:06Z</time>
      </trkpt>
      <trkpt lat="48.6075" lon="-2.26523">
        <ele>64</ele>
        <time>2019-04-02T14:15:06Z</time>
      </trkpt>
      <trkpt lat="48.60727" lon="-2.26535">
        <ele>62</ele>
        <time>2019-04-02T14:16:06Z</time>
      </trkpt>
      <trkpt lat="48.60744" lon="-2.26609">
        <ele>60</ele>
        <time>2019-04-02T14:17:06Z</time>
      </trkpt>
      <trkpt lat="48.60767" lon="-2.26627">
        <ele>61</ele>
        <time>2019-04-02T14:18:06Z</time>
      </trkpt>
      <trkpt lat="48.60783" lon="-2.26647">
        <ele>61</ele>
        <time>2019-04-02T14:19:06Z</time>
      </trkpt>
      <trkpt lat="48.60766" lon="-2.26657">
        <ele>60</ele>
        <time>2019-04-02T14:20:06Z</time>
      </trkpt>
      <trkpt lat="48.60769" lon="-2.26687">
        <ele>60</ele>
        <time>2019-04-02T14:21:06Z</time>
      </trkpt>
      <trkpt lat="48.60783" lon="-2.26775">
        <ele>61</ele>
        <time>2019-04-02T14:22:06Z</time>
      </trkpt>
      <trkpt lat="48.60566" lon="-2.26831">
        <ele>63</ele>
        <time>2019-04-02T14:23:06Z</time>
      </trkpt>
      <trkpt lat="48.60532" lon="-2.26862">
        <ele>61</ele>
        <time>2019-04-02T14:24:06Z</time>
      </trkpt>
      <trkpt lat="48.6055" lon="-2.26926">
        <ele>63</ele>
        <time>2019-04-02T14:25:06Z</time>
      </trkpt>
      <trkpt lat="48.60562" lon="-2.27047">
        <ele>62</ele>
        <time>2019-04-02T14:26:06Z</time>
      </trkpt>
      <trkpt lat="48.60584" lon="-2.27103">
        <ele>63</ele>
        <time>2019-04-02T14:27:06Z</time>
      </trkpt>
      <trkpt lat="48.60621" lon="-2.27148">
        <ele>64</ele>
        <time>2019-04-02T14:28:06Z</time>
      </trkpt>
      <trkpt lat="48.60634" lon="-2.27172">
        <ele>64</ele>
        <time>2019-04-02T14:29:06Z</time>
      </trkpt>
      <trkpt lat="48.60846" lon="-2.27215">
        <ele>57</ele>
        <time>2019-04-02T14:30:06Z</time>
      </trkpt>
      <trkpt lat="48.60871" lon="-2.27304">
        <ele>55</ele>
        <time>2019-04-02T14:31:06Z</time>
      </trkpt>
      <trkpt lat="48.60901" lon="-2.27382">
        <ele>53</ele>
        <time>2019-04-02T14:32:06Z</time>
      </trkpt>
      <trkpt lat="48.60908" lon="-2.27421">
        <ele>52</ele>
        <time>2019-04-02T14:33:06Z</time>
      </trkpt>
      <trkpt lat="48.60924" lon="-2.27477">
        <ele>53</ele>
        <time>2019-04-02T14:34:06Z</time>
      </trkpt>
      <trkpt lat="48.60953" lon="-2.27551">
        <ele>51</ele>
        <time>2019-04-02T14:35:06Z</time>
      </trkpt>
      <trkpt lat="48.60986" lon="-2.27491">
        <ele>51</ele>
        <time>2019-04-02T14:36:06Z</time>
      </trkpt>
      <trkpt lat="48.6102" lon="-2.27445">
        <ele>50</ele>
        <time>2019-04-02T14:37:06Z</time>
      </trkpt>
      <trkpt lat="48.61081" lon="-2.2737">
        <ele>49</ele>
        <time>2019-04-02T14:38:06Z</time>
      </trkpt>
      <trkpt lat="48.61119" lon="-2.27305">
        <ele>49</ele>
        <time>2019-04-02T14:39:06Z</time>
      </trkpt>
      <trkpt lat="48.61133" lon="-2.27303">
        <ele>49</ele>
        <time>2019-04-02T14:40:06Z</time>
      </trkpt>
      <trkpt lat="48.61149" lon="-2.27309">
        <ele>49</ele>
        <time>2019-04-02T14:41:06Z</time>
      </trkpt>
      <trkpt lat="48.61174" lon="-2.2733">
        <ele>49</ele>
        <time>2019-04-02T14:42:06Z</time>
      </trkpt>
      <trkpt lat="48.61254" lon="-2.27407">
        <ele>49</ele>
        <time>2019-04-02T14:43:06Z</time>
      </trkpt>
      <trkpt lat="48.61325" lon="-2.27454">
        <ele>50</ele>
        <time>2019-04-02T14:44:06Z</time>
      </trkpt>
      <trkpt lat="48.61341" lon="-2.27468">
        <ele>49</ele>
        <time>2019-04-02T14:45:06Z</time>
      </trkpt>
      <trkpt lat="48.61361" lon="-2.27498">
        <ele>48</ele>
        <time>2019-04-02T14:46:06Z</time>
      </trkpt>
      <trkpt lat="48.61389" lon="-2.27517">
        <ele>48</ele>
        <time>2019-04-02T14:47:06Z</time>
      </trkpt>
      <trkpt lat="48.61423" lon="-2.27522">
        <ele>48</ele>
        <time>2019-04-02T14:48:06Z</time>
      </trkpt>
      <trkpt lat="48.61463" lon="-2.2742">
        <ele>49</ele>
        <time>2019-04-02T14:49:06Z</time>
      </trkpt>
      <trkpt lat="48.61494" lon="-2.27412">
        <ele>48</ele>
        <time>2019-04-02T14:50:06Z</time>
      </trkpt>
      <trkpt lat="48.61526" lon="-2.27417">
        <ele>47</ele>
        <time>2019-04-02T14:51:06Z</time>
      </trkpt>
      <trkpt lat="48.61537" lon="-2.27421">
        <ele>47</ele>
        <time>2019-04-02T14:52:06Z</time>
      </trkpt>
      <trkpt lat="48.61549" lon="-2.27404">
        <ele>47</ele>
        <time>2019-04-02T14:53:06Z</time>
      </trkpt>
      <trkpt lat="48.61572" lon="-2.27396">
        <ele>46</ele>
        <time>2019-04-02T14:54:06Z</time>
      </trkpt>
      <trkpt lat="48.6163" lon="-2.27423">
        <ele>47</ele>
        <time>2019-04-02T14:55:06Z</time>
      </trkpt>
      <trkpt lat="48.61662" lon="-2.27448">
        <ele>48</ele>
        <time>2019-04-02T14:56:06Z</time>
      </trkpt>
      <trkpt lat="48.61687" lon="-2.27463">
        <ele>47</ele>
        <time>2019-04-02T14:57:06Z</time>
      </trkpt>
      <trkpt lat="48.61718" lon="-2.27476">
        <ele>46</ele>
        <time>2019-04-02T14:58:06Z</time>
      </trkpt>
      <trkpt lat="48.61719" lon="-2.27491">
        <ele>46</ele>
        <time>2019-04-02T14:59:06Z</time>
      </trkpt>
      <trkpt lat="48.61767" lon="-2.27493">
        <ele>45</ele>
        <time>2019-04-02T15:00:06Z</time>
      </trkpt>
      <trkpt lat="48.61828" lon="-2.27506">
        <ele>41</ele>
        <time>2019-04-02T15:01:06Z</time>
      </trkpt>
      <trkpt lat="48.61844" lon="-2.27491">
        <ele>41</ele>
        <time>2019-04-02T15:02:06Z</time>
      </trkpt>
      <trkpt lat="48.61918" lon="-2.27378">
        <ele>43</ele>
        <time>2019-04-02T15:03:06Z</time>
      </trkpt>
      <trkpt lat="48.62004" lon="-2.27562">
        <ele>40</ele>
        <time>2019-04-02T15:04:06Z</time>
      </trkpt>
      <trkpt lat="48.62104" lon="-2.27624">
        <ele>40</ele>
        <time>2019-04-02T15:07:06Z</time>
      </trkpt>
      <trkpt lat="48.62111" lon="-2.27601">
        <ele>40</ele>
        <time>2019-04-02T15:08:06Z</time>
      </trkpt>
      <trkpt lat="48.62139" lon="-2.27557">
        <ele>42</ele>
        <time>2019-04-02T15:09:06Z</time>
      </trkpt>
      <trkpt lat="48.62194" lon="-2.27507">
        <ele>43</ele>
        <time>2019-04-02T15:10:06Z</time>
      </trkpt>
      <trkpt lat="48.62298" lon="-2.274">
        <ele>45</ele>
        <time>2019-04-02T15:11:06Z</time>
      </trkpt>
      <trkpt lat="48.62379" lon="-2.27504">
        <ele>45</ele>
        <time>2019-04-02T15:12:06Z</time>
      </trkpt>
      <trkpt lat="48.62448" lon="-2.27602">
        <ele>44</ele>
        <time>2019-04-02T15:13:06Z</time>
      </trkpt>
      <trkpt lat="48.62462" lon="-2.27631">
        <ele>43</ele>
        <time>2019-04-02T15:14:06Z</time>
      </trkpt>
      <trkpt lat="48.62511" lon="-2.27597">
        <ele>45</ele>
        <time>2019-04-02T15:15:06Z</time>
      </trkpt>
      <trkpt lat="48.62532" lon="-2.27583">
        <ele>45</ele>
        <time>2019-04-02T15:16:06Z</time>
      </trkpt>
      <trkpt lat="48.62655" lon="-2.27537">
        <ele>46</ele>
        <time>2019-04-02T15:17:06Z</time>
      </trkpt>
      <trkpt lat="48.62682" lon="-2.2753">
        <ele>46</ele>
        <time>2019-04-02T15:18:06Z</time>
      </trkpt>
      <trkpt lat="48.62713" lon="-2.27614">
        <ele>44</ele>
        <time>2019-04-02T15:19:06Z</time>
      </trkpt>
      <trkpt lat="48.6276" lon="-2.27772">
        <ele>42</ele>
        <time>2019-04-02T15:20:06Z</time>
      </trkpt>
      <trkpt lat="48.62773" lon="-2.27794">
        <ele>42</ele>
        <time>2019-04-02T15:21:06Z</time>
      </trkpt>
      <trkpt lat="48.62789" lon="-2.27807">
        <ele>42</ele>
        <time>2019-04-02T15:22:06Z</time>
      </trkpt>
      <trkpt lat="48.62823" lon="-2.27808">
        <ele>42</ele>
        <time>2019-04-02T15:23:06Z</time>
      </trkpt>
      <trkpt lat="48.6284" lon="-2.27835">
        <ele>42</ele>
        <time>2019-04-02T15:24:06Z</time>
      </trkpt>
      <trkpt lat="48.62867" lon="-2.27956">
        <ele>44</ele>
        <time>2019-04-02T15:25:06Z</time>
      </trkpt>
      <trkpt lat="48.6288" lon="-2.28015">
        <ele>46</ele>
        <time>2019-04-02T15:26:06Z</time>
      </trkpt>
      <trkpt lat="48.62878" lon="-2.28049">
        <ele>46</ele>
        <time>2019-04-02T15:27:06Z</time>
      </trkpt>
      <trkpt lat="48.62873" lon="-2.28063">
        <ele>45</ele>
        <time>2019-04-02T15:28:06Z</time>
      </trkpt>
      <trkpt lat="48.62805" lon="-2.28143">
        <ele>42</ele>
        <time>2019-04-02T15:29:06Z</time>
      </trkpt>
      <trkpt lat="48.62788" lon="-2.28174">
        <ele>42</ele>
        <time>2019-04-02T15:30:06Z</time>
      </trkpt>
      <trkpt lat="48.62786" lon="-2.28191">
        <ele>42</ele>
        <time>2019-04-02T15:31:06Z</time>
      </trkpt>
      <trkpt lat="48.62788" lon="-2.28211">
        <ele>43</ele>
        <time>2019-04-02T15:32:06Z</time>
      </trkpt>
      <trkpt lat="48.6281" lon="-2.28259">
        <ele>45</ele>
        <time>2019-04-02T15:33:06Z</time>
      </trkpt>
      <trkpt lat="48.62829" lon="-2.28298">
        <ele>46</ele>
        <time>2019-04-02T15:34:06Z</time>
      </trkpt>
      <trkpt lat="48.62831" lon="-2.28332">
        <ele>46</ele>
        <time>2019-04-02T15:35:06Z</time>
      </trkpt>
      <trkpt lat="48.62851" lon="-2.28376">
        <ele>44</ele>
        <time>2019-04-02T15:36:06Z</time>
      </trkpt>
      <trkpt lat="48.62857" lon="-2.28403">
        <ele>43</ele>
        <time>2019-04-02T15:37:06Z</time>
      </trkpt>
      <trkpt lat="48.62887" lon="-2.28603">
        <ele>35</ele>
        <time>2019-04-02T15:38:06Z</time>
      </trkpt>
      <trkpt lat="48.62879" lon="-2.28647">
        <ele>31</ele>
        <time>2019-04-02T15:39:06Z</time>
      </trkpt>
      <trkpt lat="48.62855" lon="-2.28664">
        <ele>32</ele>
        <time>2019-04-02T15:40:06Z</time>
      </trkpt>
      <trkpt lat="48.62834" lon="-2.28676">
        <ele>32</ele>
        <time>2019-04-02T15:41:06Z</time>
      </trkpt>
      <trkpt lat="48.62811" lon="-2.28687">
        <ele>29</ele>
        <time>2019-04-02T15:42:06Z</time>
      </trkpt>
      <trkpt lat="48.62796" lon="-2.28704">
        <ele>25</ele>
        <time>2019-04-02T15:43:06Z</time>
      </trkpt>
      <trkpt lat="48.62786" lon="-2.2872">
        <ele>22</ele>
        <time>2019-04-02T15:44:06Z</time>
      </trkpt>
      <trkpt lat="48.62773" lon="-2.28748">
        <ele>17</ele>
        <time>2019-04-02T15:45:06Z</time>
      </trkpt>
      <trkpt lat="48.6277" lon="-2.28778">
        <ele>16</ele>
        <time>2019-04-02T15:46:06Z</time>
      </trkpt>
      <trkpt lat="48.62739" lon="-2.28767">
        <ele>14</ele>
        <time>2019-04-02T15:47:06Z</time>
      </trkpt>
      <trkpt lat="48.62714" lon="-2.28735">
        <ele>17</ele>
        <time>2019-04-02T15:48:06Z</time>
      </trkpt>
      <trkpt lat="48.62699" lon="-2.28705">
        <ele>19</ele>
        <time>2019-04-02T15:49:06Z</time>
      </trkpt>
      <trkpt lat="48.62683" lon="-2.28637">
        <ele>21</ele>
        <time>2019-04-02T15:50:06Z</time>
      </trkpt>
      <trkpt lat="48.62665" lon="-2.28596">
        <ele>21</ele>
        <time>2019-04-02T15:51:06Z</time>
      </trkpt>
      <trkpt lat="48.62625" lon="-2.28569">
        <ele>24</ele>
        <time>2019-04-02T15:52:06Z</time>
      </trkpt>
      <trkpt lat="48.62604" lon="-2.28537">
        <ele>26</ele>
        <time>2019-04-02T15:53:06Z</time>
      </trkpt>
      <trkpt lat="48.62589" lon="-2.28493">
        <ele>27</ele>
        <time>2019-04-02T15:54:06Z</time>
      </trkpt>
      <trkpt lat="48.62588" lon="-2.28452">
        <ele>28</ele>
        <time>2019-04-02T15:55:06Z</time>
      </trkpt>
      <trkpt lat="48.6261" lon="-2.28415">
        <ele>31</ele>
        <time>2019-04-02T15:56:06Z</time>
      </trkpt>
      <trkpt lat="48.62644" lon="-2.28393">
        <ele>34</ele>
        <time>2019-04-02T15:57:06Z</time>
      </trkpt>
      <trkpt lat="48.62662" lon="-2.28367">
        <ele>35</ele>
        <time>2019-04-02T15:58:06Z</time>
      </trkpt>
      <trkpt lat="48.6266" lon="-2.28339">
        <ele>34</ele>
        <time>2019-04-02T15:59:06Z</time>
      </trkpt>
      <trkpt lat="48.6265" lon="-2.28327">
        <ele>33</ele>
        <time>2019-04-02T16:00:06Z</time>
      </trkpt>
      <trkpt lat="48.62646" lon="-2.28311">
        <ele>33</ele>
        <time>2019-04-02T16:01:06Z</time>
      </trkpt>
      <trkpt lat="48.62666" lon="-2.28262">
        <ele>31</ele>
        <time>2019-04-02T16:02:06Z</time>
      </trkpt>
      <trkpt lat="48.6268" lon="-2.28241">
        <ele>33</ele>
        <time>2019-04-02T16:03:06Z</time>
      </trkpt>
      <trkpt lat="48.62675" lon="-2.2822">
        <ele>32</ele>
        <time>2019-04-02T16:04:06Z</time>
      </trkpt>
      <trkpt lat="48.6266" lon="-2.28189">
        <ele>31</ele>
        <time>2019-04-02T16:05:06Z</time>
      </trkpt>
      <trkpt lat="48.62652" lon="-2.28159">
        <ele>32</ele>
        <time>2019-04-02T16:06:06Z</time>
      </trkpt>
      <trkpt lat="48.62655" lon="-2.28129">
        <ele>32</ele>
        <time>2019-04-02T16:07:06Z</time>
      </trkpt>
      <trkpt lat="48.62638" lon="-2.28125">
        <ele>33</ele>
        <time>2019-04-02T16:08:06Z</time>
      </trkpt>
      <trkpt lat="48.6263" lon="-2.28115">
        <ele>33</ele>
        <time>2019-04-02T16:09:06Z</time>
      </trkpt>
      <trkpt lat="48.62621" lon="-2.28071">
        <ele>33</ele>
        <time>2019-04-02T16:10:06Z</time>
      </trkpt>
      <trkpt lat="48.62616" lon="-2.28015">
        <ele>32</ele>
        <time>2019-04-02T16:11:06Z</time>
      </trkpt>
      <trkpt lat="48.62576" lon="-2.2791">
        <ele>32</ele>
        <time>2019-04-02T16:12:06Z</time>
      </trkpt>
      <trkpt lat="48.62555" lon="-2.27874">
        <ele>33</ele>
        <time>2019-04-02T16:13:06Z</time>
      </trkpt>
      <trkpt lat="48.62535" lon="-2.27868">
        <ele>33</ele>
        <time>2019-04-02T16:14:06Z</time>
      </trkpt>
      <trkpt lat="48.62512" lon="-2.27846">
        <ele>33</ele>
        <time>2019-04-02T16:15:06Z</time>
      </trkpt>
      <trkpt lat="48.62476" lon="-2.27822">
        <ele>34</ele>
        <time>2019-04-02T16:16:06Z</time>
      </trkpt>
      <trkpt lat="48.62435" lon="-2.27789">
        <ele>35</ele>
        <time>2019-04-02T16:17:06Z</time>
      </trkpt>
      <trkpt lat="48.62385" lon="-2.27786">
        <ele>34</ele>
        <time>2019-04-02T16:18:06Z</time>
      </trkpt>
      <trkpt lat="48.62364" lon="-2.27802">
        <ele>33</ele>
        <time>2019-04-02T16:19:06Z</time>
      </trkpt>
      <trkpt lat="48.62347" lon="-2.27814">
        <ele>32</ele>
        <time>2019-04-02T16:20:06Z</time>
      </trkpt>
      <trkpt lat="48.62324" lon="-2.27833">
        <ele>31</ele>
        <time>2019-04-02T16:21:06Z</time>
      </trkpt>
      <trkpt lat="48.62297" lon="-2.2784">
        <ele>31</ele>
        <time>2019-04-02T16:22:06Z</time>
      </trkpt>
      <trkpt lat="48.62273" lon="-2.27846">
        <ele>32</ele>
        <time>2019-04-02T16:23:06Z</time>
      </trkpt>
      <trkpt lat="48.62247" lon="-2.27855">
        <ele>32</ele>
        <time>2019-04-02T16:24:06Z</time>
      </trkpt>
      <trkpt lat="48.62221" lon="-2.27857">
        <ele>32</ele>
        <time>2019-04-02T16:25:06Z</time>
      </trkpt>
      <trkpt lat="48.62175" lon="-2.27907">
        <ele>32</ele>
        <time>2019-04-02T16:26:06Z</time>
      </trkpt>
      <trkpt lat="48.62121" lon="-2.27896">
        <ele>34</ele>
        <time>2019-04-02T16:27:06Z</time>
      </trkpt>
      <trkpt lat="48.62063" lon="-2.27874">
        <ele>35</ele>
        <time>2019-04-02T16:28:06Z</time>
      </trkpt>
      <trkpt lat="48.62041" lon="-2.27865">
        <ele>36</ele>
        <time>2019-04-02T16:29:06Z</time>
      </trkpt>
      <trkpt lat="48.6203" lon="-2.27916">
        <ele>36</ele>
        <time>2019-04-02T16:30:06Z</time>
      </trkpt>
      <trkpt lat="48.62029" lon="-2.27957">
        <ele>37</ele>
        <time>2019-04-02T16:31:06Z</time>
      </trkpt>
      <trkpt lat="48.62037" lon="-2.27995">
        <ele>38</ele>
        <time>2019-04-02T16:32:06Z</time>
      </trkpt>
      <trkpt lat="48.62065" lon="-2.28063">
        <ele>38</ele>
        <time>2019-04-02T16:33:06Z</time>
      </trkpt>
      <trkpt lat="48.62069" lon="-2.28106">
        <ele>38</ele>
        <time>2019-04-02T16:34:06Z</time>
      </trkpt>
      <trkpt lat="48.62081" lon="-2.28183">
        <ele>40</ele>
        <time>2019-04-02T16:35:06Z</time>
      </trkpt>
      <trkpt lat="48.62086" lon="-2.28288">
        <ele>43</ele>
        <time>2019-04-02T16:36:06Z</time>
      </trkpt>
      <trkpt lat="48.62087" lon="-2.28353">
        <ele>45</ele>
        <time>2019-04-02T16:37:06Z</time>
      </trkpt>
      <trkpt lat="48.62081" lon="-2.28402">
        <ele>46</ele>
        <time>2019-04-02T16:38:06Z</time>
      </trkpt>
      <trkpt lat="48.62067" lon="-2.28493">
        <ele>47</ele>
        <time>2019-04-02T16:39:06Z</time>
      </trkpt>
      <trkpt lat="48.62055" lon="-2.28522">
        <ele>48</ele>
        <time>2019-04-02T16:40:06Z</time>
      </trkpt>
      <trkpt lat="48.6204" lon="-2.28555">
        <ele>49</ele>
        <time>2019-04-02T16:41:06Z</time>
      </trkpt>
      <trkpt lat="48.62024" lon="-2.28573">
        <ele>49</ele>
        <time>2019-04-02T16:42:06Z</time>
      </trkpt>
      <trkpt lat="48.62" lon="-2.28582">
        <ele>49</ele>
        <time>2019-04-02T16:43:06Z</time>
      </trkpt>
      <trkpt lat="48.61971" lon="-2.2859">
        <ele>49</ele>
        <time>2019-04-02T16:44:06Z</time>
      </trkpt>
      <trkpt lat="48.61943" lon="-2.28606">
        <ele>49</ele>
        <time>2019-04-02T16:45:06Z</time>
      </trkpt>
      <trkpt lat="48.61887" lon="-2.28654">
        <ele>51</ele>
        <time>2019-04-02T16:46:06Z</time>
      </trkpt>
      <trkpt lat="48.6185" lon="-2.28679">
        <ele>51</ele>
        <time>2019-04-02T16:47:06Z</time>
      </trkpt>
      <trkpt lat="48.61824" lon="-2.28708">
        <ele>51</ele>
        <time>2019-04-02T16:48:06Z</time>
      </trkpt>
      <trkpt lat="48.61831" lon="-2.28845">
        <ele>52</ele>
        <time>2019-04-02T16:49:06Z</time>
      </trkpt>
      <trkpt lat="48.61827" lon="-2.28905">
        <ele>52</ele>
        <time>2019-04-02T16:50:06Z</time>
      </trkpt>
      <trkpt lat="48.61835" lon="-2.28924">
        <ele>52</ele>
        <time>2019-04-02T16:51:06Z</time>
      </trkpt>
      <trkpt lat="48.61832" lon="-2.28937">
        <ele>51</ele>
        <time>2019-04-02T16:52:06Z</time>
      </trkpt>
      <trkpt lat="48.61821" lon="-2.28957">
        <ele>51</ele>
        <time>2019-04-02T16:53:06Z</time>
      </trkpt>
      <trkpt lat="48.61807" lon="-2.28987">
        <ele>50</ele>
        <time>2019-04-02T16:54:06Z</time>
      </trkpt>
      <trkpt lat="48.61787" lon="-2.29017">
        <ele>49</ele>
        <time>2019-04-02T16:55:06Z</time>
      </trkpt>
      <trkpt lat="48.61775" lon="-2.29031">
        <ele>48</ele>
        <time>2019-04-02T16:56:06Z</time>
      </trkpt>
      <trkpt lat="48.61759" lon="-2.2905">
        <ele>48</ele>
        <time>2019-04-02T16:57:06Z</time>
      </trkpt>
      <trkpt lat="48.61745" lon="-2.29064">
        <ele>47</ele>
        <time>2019-04-02T16:58:06Z</time>
      </trkpt>
      <trkpt lat="48.61731" lon="-2.29065">
        <ele>46</ele>
        <time>2019-04-02T16:59:06Z</time>
      </trkpt>
      <trkpt lat="48.61717" lon="-2.29072">
        <ele>45</ele>
        <time>2019-04-02T17:00:06Z</time>
      </trkpt>
      <trkpt lat="48.61704" lon="-2.29081">
        <ele>44</ele>
        <time>2019-04-02T17:01:06Z</time>
      </trkpt>
      <trkpt lat="48.61692" lon="-2.291">
        <ele>43</ele>
        <time>2019-04-02T17:02:06Z</time>
      </trkpt>
      <trkpt lat="48.61697" lon="-2.29112">
        <ele>43</ele>
        <time>2019-04-02T17:03:06Z</time>
      </trkpt>
      <trkpt lat="48.61716" lon="-2.29136">
        <ele>44</ele>
        <time>2019-04-02T17:04:06Z</time>
      </trkpt>
      <trkpt lat="48.61727" lon="-2.29162">
        <ele>44</ele>
        <time>2019-04-02T17:05:06Z</time>
      </trkpt>
      <trkpt lat="48.61731" lon="-2.29175">
        <ele>44</ele>
        <time>2019-04-02T17:06:06Z</time>
      </trkpt>
      <trkpt lat="48.61735" lon="-2.29183">
        <ele>45</ele>
        <time>2019-04-02T17:07:06Z</time>
      </trkpt>
      <trkpt lat="48.61752" lon="-2.29201">
        <ele>46</ele>
        <time>2019-04-02T17:08:06Z</time>
      </trkpt>
      <trkpt lat="48.61792" lon="-2.29262">
        <ele>44</ele>
        <time>2019-04-02T17:09:06Z</time>
      </trkpt>
      <trkpt lat="48.61817" lon="-2.29313">
        <ele>41</ele>
        <time>2019-04-02T17:10:06Z</time>
      </trkpt>
      <trkpt lat="48.61827" lon="-2.29355">
        <ele>37</ele>
        <time>2019-04-02T17:11:06Z</time>
      </trkpt>
      <trkpt lat="48.61833" lon="-2.29371">
        <ele>35</ele>
        <time>2019-04-02T17:12:06Z</time>
      </trkpt>
      <trkpt lat="48.6186" lon="-2.29388">
        <ele>32</ele>
        <time>2019-04-02T17:13:06Z</time>
      </trkpt>
      <trkpt lat="48.61914" lon="-2.29407">
        <ele>30</ele>
        <time>2019-04-02T17:14:06Z</time>
      </trkpt>
      <trkpt lat="48.61953" lon="-2.29418">
        <ele>25</ele>
        <time>2019-04-02T17:15:06Z</time>
      </trkpt>
      <trkpt lat="48.61931" lon="-2.29441">
        <ele>26</ele>
        <time>2019-04-02T17:16:06Z</time>
      </trkpt>
      <trkpt lat="48.61913" lon="-2.29452">
        <ele>26</ele>
        <time>2019-04-02T17:17:06Z</time>
      </trkpt>
      <trkpt lat="48.61906" lon="-2.29464">
        <ele>25</ele>
        <time>2019-04-02T17:18:06Z</time>
      </trkpt>
      <trkpt lat="48.61903" lon="-2.29495">
        <ele>23</ele>
        <time>2019-04-02T17:19:06Z</time>
      </trkpt>
      <trkpt lat="48.61916" lon="-2.29511">
        <ele>23</ele>
        <time>2019-04-02T17:20:06Z</time>
      </trkpt>
      <trkpt lat="48.61918" lon="-2.29541">
        <ele>26</ele>
        <time>2019-04-02T17:21:06Z</time>
      </trkpt>
      <trkpt lat="48.61906" lon="-2.29615">
        <ele>33</ele>
        <time>2019-04-02T17:22:06Z</time>
      </trkpt>
      <trkpt lat="48.61882" lon="-2.29711">
        <ele>39</ele>
        <time>2019-04-02T17:23:06Z</time>
      </trkpt>
      <trkpt lat="48.61868" lon="-2.29771">
        <ele>41</ele>
        <time>2019-04-02T17:24:06Z</time>
      </trkpt>
      <trkpt lat="48.61873" lon="-2.29834">
        <ele>44</ele>
        <time>2019-04-02T17:25:06Z</time>
      </trkpt>
      <trkpt lat="48.61885" lon="-2.29931">
        <ele>45</ele>
        <time>2019-04-02T17:26:06Z</time>
      </trkpt>
      <trkpt lat="48.61886" lon="-2.29963">
        <ele>46</ele>
        <time>2019-04-02T17:27:06Z</time>
      </trkpt>
      <trkpt lat="48.61927" lon="-2.29971">
        <ele>45</ele>
        <time>2019-04-02T17:28:06Z</time>
      </trkpt>
      <trkpt lat="48.61959" lon="-2.29951">
        <ele>45</ele>
        <time>2019-04-02T17:29:06Z</time>
      </trkpt>
      <trkpt lat="48.61981" lon="-2.29898">
        <ele>45</ele>
        <time>2019-04-02T17:30:06Z</time>
      </trkpt>
      <trkpt lat="48.6202" lon="-2.2986">
        <ele>44</ele>
        <time>2019-04-02T17:31:06Z</time>
      </trkpt>
      <trkpt lat="48.62059" lon="-2.29844">
        <ele>44</ele>
        <time>2019-04-02T17:32:06Z</time>
      </trkpt>
      <trkpt lat="48.62176" lon="-2.2983">
        <ele>44</ele>
        <time>2019-04-02T17:33:06Z</time>
      </trkpt>
      <trkpt lat="48.62204" lon="-2.2981">
        <ele>44</ele>
        <time>2019-04-02T17:34:06Z</time>
      </trkpt>
      <trkpt lat="48.62228" lon="-2.29633">
        <ele>42</ele>
        <time>2019-04-02T17:35:06Z</time>
      </trkpt>
      <trkpt lat="48.62243" lon="-2.29561">
        <ele>39</ele>
        <time>2019-04-02T17:36:06Z</time>
      </trkpt>
      <trkpt lat="48.62269" lon="-2.29494">
        <ele>34</ele>
        <time>2019-04-02T17:37:06Z</time>
      </trkpt>
      <trkpt lat="48.62278" lon="-2.29464">
        <ele>30</ele>
        <time>2019-04-02T17:38:06Z</time>
      </trkpt>
      <trkpt lat="48.62275" lon="-2.29447">
        <ele>29</ele>
        <time>2019-04-02T17:39:06Z</time>
      </trkpt>
      <trkpt lat="48.62351" lon="-2.29453">
        <ele>25</ele>
        <time>2019-04-02T17:40:06Z</time>
      </trkpt>
      <trkpt lat="48.62364" lon="-2.29463">
        <ele>26</ele>
        <time>2019-04-02T17:41:06Z</time>
      </trkpt>
      <trkpt lat="48.62361" lon="-2.29505">
        <ele>31</ele>
        <time>2019-04-02T17:42:06Z</time>
      </trkpt>
      <trkpt lat="48.62425" lon="-2.29524">
        <ele>31</ele>
        <time>2019-04-02T17:43:06Z</time>
      </trkpt>
      <trkpt lat="48.62443" lon="-2.29536">
        <ele>29</ele>
        <time>2019-04-02T17:44:06Z</time>
      </trkpt>
      <trkpt lat="48.62451" lon="-2.2956">
        <ele>31</ele>
        <time>2019-04-02T17:45:06Z</time>
      </trkpt>
      <trkpt lat="48.62457" lon="-2.29565">
        <ele>31</ele>
        <time>2019-04-02T17:46:06Z</time>
      </trkpt>
      <trkpt lat="48.62458" lon="-2.29576">
        <ele>32</ele>
        <time>2019-04-02T17:47:06Z</time>
      </trkpt>
      <trkpt lat="48.62466" lon="-2.29584">
        <ele>32</ele>
        <time>2019-04-02T17:48:06Z</time>
      </trkpt>
      <trkpt lat="48.62504" lon="-2.29607">
        <ele>30</ele>
        <time>2019-04-02T17:49:06Z</time>
      </trkpt>
      <trkpt lat="48.62527" lon="-2.29604">
        <ele>27</ele>
        <time>2019-04-02T17:50:06Z</time>
      </trkpt>
      <trkpt lat="48.62558" lon="-2.29579">
        <ele>21</ele>
        <time>2019-04-02T17:51:06Z</time>
      </trkpt>
      <trkpt lat="48.62581" lon="-2.29572">
        <ele>17</ele>
        <time>2019-04-02T17:52:06Z</time>
      </trkpt>
      <trkpt lat="48.62594" lon="-2.29579">
        <ele>15</ele>
        <time>2019-04-02T17:53:06Z</time>
      </trkpt>
      <trkpt lat="48.62595" lon="-2.29604">
        <ele>17</ele>
        <time>2019-04-02T17:54:06Z</time>
      </trkpt>
      <trkpt lat="48.62589" lon="-2.29666">
        <ele>23</ele>
        <time>2019-04-02T17:55:06Z</time>
      </trkpt>
      <trkpt lat="48.62596" lon="-2.29687">
        <ele>21</ele>
        <time>2019-04-02T17:56:06Z</time>
      </trkpt>
      <trkpt lat="48.62598" lon="-2.29713">
        <ele>20</ele>
        <time>2019-04-02T17:57:06Z</time>
      </trkpt>
      <trkpt lat="48.62591" lon="-2.29742">
        <ele>22</ele>
        <time>2019-04-02T17:58:06Z</time>
      </trkpt>
      <trkpt lat="48.62567" lon="-2.2978">
        <ele>22</ele>
        <time>2019-04-02T17:59:06Z</time>
      </trkpt>
      <trkpt lat="48.62561" lon="-2.29807">
        <ele>19</ele>
        <time>2019-04-02T18:00:06Z</time>
      </trkpt>
      <trkpt lat="48.62553" lon="-2.29828">
        <ele>19</ele>
        <time>2019-04-02T18:01:06Z</time>
      </trkpt>
      <trkpt lat="48.62537" lon="-2.29825">
        <ele>23</ele>
        <time>2019-04-02T18:02:06Z</time>
      </trkpt>
      <trkpt lat="48.6253" lon="-2.29827">
        <ele>25</ele>
        <time>2019-04-02T18:03:06Z</time>
      </trkpt>
      <trkpt lat="48.62491" lon="-2.29874">
        <ele>24</ele>
        <time>2019-04-02T18:04:06Z</time>
      </trkpt>
      <trkpt lat="48.62478" lon="-2.29882">
        <ele>24</ele>
        <time>2019-04-02T18:05:06Z</time>
      </trkpt>
      <trkpt lat="48.6244" lon="-2.29896">
        <ele>27</ele>
        <time>2019-04-02T18:06:06Z</time>
      </trkpt>
      <trkpt lat="48.62422" lon="-2.29915">
        <ele>27</ele>
        <time>2019-04-02T18:07:06Z</time>
      </trkpt>
      <trkpt lat="48.62401" lon="-2.29925">
        <ele>28</ele>
        <time>2019-04-02T18:08:06Z</time>
      </trkpt>
      <trkpt lat="48.62356" lon="-2.29933">
        <ele>33</ele>
        <time>2019-04-02T18:09:06Z</time>
      </trkpt>
      <trkpt lat="48.62344" lon="-2.29938">
        <ele>33</ele>
        <time>2019-04-02T18:10:06Z</time>
      </trkpt>
      <trkpt lat="48.6234" lon="-2.29937">
        <ele>34</ele>
        <time>2019-04-02T18:11:06Z</time>
      </trkpt>
      <trkpt lat="48.62333" lon="-2.29923">
        <ele>39</ele>
        <time>2019-04-02T18:12:06Z</time>
      </trkpt>
      <trkpt lat="48.62324" lon="-2.29922">
        <ele>40</ele>
        <time>2019-04-02T18:13:06Z</time>
      </trkpt>
      <trkpt lat="48.62299" lon="-2.29934">
        <ele>37</ele>
        <time>2019-04-02T18:14:06Z</time>
      </trkpt>
      <trkpt lat="48.6229" lon="-2.29937">
        <ele>37</ele>
        <time>2019-04-02T18:15:06Z</time>
      </trkpt>
      <trkpt lat="48.62281" lon="-2.29928">
        <ele>39</ele>
        <time>2019-04-02T18:16:06Z</time>
      </trkpt>
      <trkpt lat="48.62276" lon="-2.29912">
        <ele>43</ele>
        <time>2019-04-02T18:17:06Z</time>
      </trkpt>
      <trkpt lat="48.62267" lon="-2.29908">
        <ele>43</ele>
        <time>2019-04-02T18:18:06Z</time>
      </trkpt>
      <trkpt lat="48.62253" lon="-2.29925">
        <ele>41</ele>
        <time>2019-04-02T18:19:06Z</time>
      </trkpt>
      <trkpt lat="48.62237" lon="-2.29956">
        <ele>35</ele>
        <time>2019-04-02T18:20:06Z</time>
      </trkpt>
      <trkpt lat="48.62183" lon="-2.30006">
        <ele>33</ele>
        <time>2019-04-02T18:21:06Z</time>
      </trkpt>
      <trkpt lat="48.62174" lon="-2.30015">
        <ele>32</ele>
        <time>2019-04-02T18:22:06Z</time>
      </trkpt>
      <trkpt lat="48.62156" lon="-2.30043">
        <ele>31</ele>
        <time>2019-04-02T18:23:06Z</time>
      </trkpt>
      <trkpt lat="48.62138" lon="-2.30059">
        <ele>31</ele>
        <time>2019-04-02T18:24:06Z</time>
      </trkpt>
      <trkpt lat="48.62121" lon="-2.30085">
        <ele>32</ele>
        <time>2019-04-02T18:25:06Z</time>
      </trkpt>
      <trkpt lat="48.62114" lon="-2.30106">
        <ele>30</ele>
        <time>2019-04-02T18:26:06Z</time>
      </trkpt>
      <trkpt lat="48.62102" lon="-2.30166">
        <ele>25</ele>
        <time>2019-04-02T18:27:06Z</time>
      </trkpt>
      <trkpt lat="48.62101" lon="-2.30192">
        <ele>21</ele>
        <time>2019-04-02T18:28:06Z</time>
      </trkpt>
      <trkpt lat="48.62104" lon="-2.30222">
        <ele>16</ele>
        <time>2019-04-02T18:29:06Z</time>
      </trkpt>
      <trkpt lat="48.62095" lon="-2.30267">
        <ele>11</ele>
        <time>2019-04-02T18:31:06Z</time>
      </trkpt>
      <trkpt lat="48.6209" lon="-2.30279">
        <ele>10</ele>
        <time>2019-04-02T18:32:06Z</time>
      </trkpt>
      <trkpt lat="48.62077" lon="-2.30287">
        <ele>11</ele>
        <time>2019-04-02T18:33:06Z</time>
      </trkpt>
      <trkpt lat="48.62063" lon="-2.30301">
        <ele>12</ele>
        <time>2019-04-02T18:34:06Z</time>
      </trkpt>
      <trkpt lat="48.62057" lon="-2.30303">
        <ele>13</ele>
        <time>2019-04-02T18:35:06Z</time>
      </trkpt>
      <trkpt lat="48.62037" lon="-2.30296">
        <ele>18</ele>
        <time>2019-04-02T18:36:06Z</time>
      </trkpt>
      <trkpt lat="48.62021" lon="-2.30301">
        <ele>21</ele>
        <time>2019-04-02T18:37:06Z</time>
      </trkpt>
      <trkpt lat="48.62017" lon="-2.30302">
        <ele>21</ele>
        <time>2019-04-02T18:38:06Z</time>
      </trkpt>
      <trkpt lat="48.62008" lon="-2.30318">
        <ele>21</ele>
        <time>2019-04-02T18:39:06Z</time>
      </trkpt>
      <trkpt lat="48.61995" lon="-2.30332">
        <ele>22</ele>
        <time>2019-04-02T18:40:06Z</time>
      </trkpt>
      <trkpt lat="48.61975" lon="-2.30346">
        <ele>24</ele>
        <time>2019-04-02T18:41:06Z</time>
      </trkpt>
      <trkpt lat="48.61964" lon="-2.30361">
        <ele>24</ele>
        <time>2019-04-02T18:42:06Z</time>
      </trkpt>
      <trkpt lat="48.61954" lon="-2.30377">
        <ele>24</ele>
        <time>2019-04-02T18:43:06Z</time>
      </trkpt>
      <trkpt lat="48.61947" lon="-2.30393">
        <ele>24</ele>
        <time>2019-04-02T18:44:06Z</time>
      </trkpt>
      <trkpt lat="48.61941" lon="-2.30402">
        <ele>24</ele>
        <time>2019-04-02T18:45:06Z</time>
      </trkpt>
      <trkpt lat="48.61916" lon="-2.30412">
        <ele>30</ele>
        <time>2019-04-02T18:46:06Z</time>
      </trkpt>
      <trkpt lat="48.61903" lon="-2.30415">
        <ele>31</ele>
        <time>2019-04-02T18:47:06Z</time>
      </trkpt>
      <trkpt lat="48.61897" lon="-2.30412">
        <ele>32</ele>
        <time>2019-04-02T18:48:06Z</time>
      </trkpt>
      <trkpt lat="48.61882" lon="-2.30459">
        <ele>27</ele>
        <time>2019-04-02T18:49:06Z</time>
      </trkpt>
      <trkpt lat="48.61873" lon="-2.30475">
        <ele>26</ele>
        <time>2019-04-02T18:50:06Z</time>
      </trkpt>
      <trkpt lat="48.61852" lon="-2.30493">
        <ele>28</ele>
        <time>2019-04-02T18:51:06Z</time>
      </trkpt>
      <trkpt lat="48.61805" lon="-2.30551">
        <ele>24</ele>
        <time>2019-04-02T18:52:06Z</time>
      </trkpt>
      <trkpt lat="48.61779" lon="-2.30581">
        <ele>23</ele>
        <time>2019-04-02T18:53:06Z</time>
      </trkpt>
      <trkpt lat="48.61763" lon="-2.3057">
        <ele>27</ele>
        <time>2019-04-02T18:55:06Z</time>
      </trkpt>
      <trkpt lat="48.61754" lon="-2.30566">
        <ele>29</ele>
        <time>2019-04-02T18:56:06Z</time>
      </trkpt>
      <trkpt lat="48.61713" lon="-2.30591">
        <ele>34</ele>
        <time>2019-04-02T18:57:06Z</time>
      </trkpt>
      <trkpt lat="48.61694" lon="-2.30604">
        <ele>35</ele>
        <time>2019-04-02T18:58:06Z</time>
      </trkpt>
      <trkpt lat="48.61669" lon="-2.30635">
        <ele>37</ele>
        <time>2019-04-02T18:59:06Z</time>
      </trkpt>
      <trkpt lat="48.61657" lon="-2.30652">
        <ele>37</ele>
        <time>2019-04-02T19:00:06Z</time>
      </trkpt>
      <trkpt lat="48.61647" lon="-2.30678">
        <ele>34</ele>
        <time>2019-04-02T19:01:06Z</time>
      </trkpt>
      <trkpt lat="48.61631" lon="-2.30697">
        <ele>33</ele>
        <time>2019-04-02T19:02:06Z</time>
      </trkpt>
      <trkpt lat="48.61608" lon="-2.30722">
        <ele>35</ele>
        <time>2019-04-02T19:03:06Z</time>
      </trkpt>
      <trkpt lat="48.61597" lon="-2.30732">
        <ele>36</ele>
        <time>2019-04-02T19:04:06Z</time>
      </trkpt>
      <trkpt lat="48.61588" lon="-2.30737">
        <ele>38</ele>
        <time>2019-04-02T19:05:06Z</time>
      </trkpt>
      <trkpt lat="48.61568" lon="-2.30788">
        <ele>32</ele>
        <time>2019-04-02T19:06:06Z</time>
      </trkpt>
      <trkpt lat="48.61552" lon="-2.3082">
        <ele>29</ele>
        <time>2019-04-02T19:07:06Z</time>
      </trkpt>
      <trkpt lat="48.61542" lon="-2.30826">
        <ele>30</ele>
        <time>2019-04-02T19:08:06Z</time>
      </trkpt>
      <trkpt lat="48.61527" lon="-2.30835">
        <ele>31</ele>
        <time>2019-04-02T19:09:06Z</time>
      </trkpt>
      <trkpt lat="48.615" lon="-2.3086">
        <ele>32</ele>
        <time>2019-04-02T19:10:06Z</time>
      </trkpt>
      <trkpt lat="48.61483" lon="-2.30877">
        <ele>31</ele>
        <time>2019-04-02T19:11:06Z</time>
      </trkpt>
      <trkpt lat="48.61473" lon="-2.30857">
        <ele>36</ele>
        <time>2019-04-02T19:12:06Z</time>
      </trkpt>
      <trkpt lat="48.61461" lon="-2.30838">
        <ele>39</ele>
        <time>2019-04-02T19:13:06Z</time>
      </trkpt>
      <trkpt lat="48.61458" lon="-2.30836">
        <ele>40</ele>
        <time>2019-04-02T19:14:06Z</time>
      </trkpt>
      <trkpt lat="48.61454" lon="-2.30838">
        <ele>40</ele>
        <time>2019-04-02T19:15:06Z</time>
      </trkpt>
      <trkpt lat="48.61451" lon="-2.30843">
        <ele>39</ele>
        <time>2019-04-02T19:16:06Z</time>
      </trkpt>
      <trkpt lat="48.61443" lon="-2.30861">
        <ele>39</ele>
        <time>2019-04-02T19:17:06Z</time>
      </trkpt>
      <trkpt lat="48.61438" lon="-2.30888">
        <ele>37</ele>
        <time>2019-04-02T19:18:06Z</time>
      </trkpt>
      <trkpt lat="48.61433" lon="-2.30916">
        <ele>36</ele>
        <time>2019-04-02T19:19:06Z</time>
      </trkpt>
      <trkpt lat="48.61434" lon="-2.30938">
        <ele>31</ele>
        <time>2019-04-02T19:20:06Z</time>
      </trkpt>
      <trkpt lat="48.61436" lon="-2.30965">
        <ele>26</ele>
        <time>2019-04-02T19:21:06Z</time>
      </trkpt>
      <trkpt lat="48.61435" lon="-2.30977">
        <ele>24</ele>
        <time>2019-04-02T19:22:06Z</time>
      </trkpt>
      <trkpt lat="48.61423" lon="-2.31005">
        <ele>22</ele>
        <time>2019-04-02T19:23:06Z</time>
      </trkpt>
      <trkpt lat="48.61412" lon="-2.3102">
        <ele>22</ele>
        <time>2019-04-02T19:24:06Z</time>
      </trkpt>
      <trkpt lat="48.61396" lon="-2.31038">
        <ele>21</ele>
        <time>2019-04-02T19:25:06Z</time>
      </trkpt>
      <trkpt lat="48.61384" lon="-2.31043">
        <ele>22</ele>
        <time>2019-04-02T19:26:06Z</time>
      </trkpt>
      <trkpt lat="48.61375" lon="-2.31045">
        <ele>23</ele>
        <time>2019-04-02T19:27:06Z</time>
      </trkpt>
      <trkpt lat="48.61364" lon="-2.31057">
        <ele>22</ele>
        <time>2019-04-02T19:28:06Z</time>
      </trkpt>
      <trkpt lat="48.61357" lon="-2.31065">
        <ele>22</ele>
        <time>2019-04-02T19:29:06Z</time>
      </trkpt>
      <trkpt lat="48.61334" lon="-2.31076">
        <ele>24</ele>
        <time>2019-04-02T19:30:06Z</time>
      </trkpt>
      <trkpt lat="48.6132" lon="-2.31079">
        <ele>24</ele>
        <time>2019-04-02T19:31:06Z</time>
      </trkpt>
      <trkpt lat="48.61308" lon="-2.31093">
        <ele>21</ele>
        <time>2019-04-02T19:32:06Z</time>
      </trkpt>
      <trkpt lat="48.61298" lon="-2.311">
        <ele>19</ele>
        <time>2019-04-02T19:33:06Z</time>
      </trkpt>
      <trkpt lat="48.6128" lon="-2.31101">
        <ele>19</ele>
        <time>2019-04-02T19:34:06Z</time>
      </trkpt>
      <trkpt lat="48.61268" lon="-2.31098">
        <ele>20</ele>
        <time>2019-04-02T19:35:06Z</time>
      </trkpt>
      <trkpt lat="48.61244" lon="-2.31102">
        <ele>19</ele>
        <time>2019-04-02T19:37:06Z</time>
      </trkpt>
      <trkpt lat="48.61232" lon="-2.31111">
        <ele>18</ele>
        <time>2019-04-02T19:38:06Z</time>
      </trkpt>
      <trkpt lat="48.61225" lon="-2.31123">
        <ele>16</ele>
        <time>2019-04-02T19:39:06Z</time>
      </trkpt>
      <trkpt lat="48.61221" lon="-2.3113">
        <ele>15</ele>
        <time>2019-04-02T19:40:06Z</time>
      </trkpt>
      <trkpt lat="48.61217" lon="-2.31132">
        <ele>15</ele>
        <time>2019-04-02T19:41:06Z</time>
      </trkpt>
      <trkpt lat="48.61201" lon="-2.31126">
        <ele>16</ele>
        <time>2019-04-02T19:43:06Z</time>
      </trkpt>
      <trkpt lat="48.61181" lon="-2.31132">
        <ele>16</ele>
        <time>2019-04-02T19:45:06Z</time>
      </trkpt>
      <trkpt lat="48.61169" lon="-2.31151">
        <ele>14</ele>
        <time>2019-04-02T19:46:06Z</time>
      </trkpt>
      <trkpt lat="48.61162" lon="-2.31157">
        <ele>13</ele>
        <time>2019-04-02T19:47:06Z</time>
      </trkpt>
      <trkpt lat="48.61151" lon="-2.31155">
        <ele>15</ele>
        <time>2019-04-02T19:48:06Z</time>
      </trkpt>
      <trkpt lat="48.61142" lon="-2.3115">
        <ele>16</ele>
        <time>2019-04-02T19:49:06Z</time>
      </trkpt>
      <trkpt lat="48.61136" lon="-2.31036">
        <ele>26</ele>
        <time>2019-04-02T19:50:06Z</time>
      </trkpt>
      <trkpt lat="48.61126" lon="-2.31024">
        <ele>27</ele>
        <time>2019-04-02T19:51:06Z</time>
      </trkpt>
      <trkpt lat="48.61121" lon="-2.30936">
        <ele>33</ele>
        <time>2019-04-02T19:52:06Z</time>
      </trkpt>
      <trkpt lat="48.61124" lon="-2.30899">
        <ele>36</ele>
        <time>2019-04-02T19:53:06Z</time>
      </trkpt>
      <trkpt lat="48.61104" lon="-2.30896">
        <ele>36</ele>
        <time>2019-04-02T19:54:06Z</time>
      </trkpt>
      <trkpt lat="48.61083" lon="-2.30887">
        <ele>37</ele>
        <time>2019-04-02T19:55:06Z</time>
      </trkpt>
      <trkpt lat="48.61071" lon="-2.30879">
        <ele>38</ele>
        <time>2019-04-02T19:56:06Z</time>
      </trkpt>
      <trkpt lat="48.61055" lon="-2.30862">
        <ele>39</ele>
        <time>2019-04-02T19:57:06Z</time>
      </trkpt>
      <trkpt lat="48.61033" lon="-2.30891">
        <ele>38</ele>
        <time>2019-04-02T19:58:06Z</time>
      </trkpt>
      <trkpt lat="48.61009" lon="-2.30931">
        <ele>37</ele>
        <time>2019-04-02T19:59:06Z</time>
      </trkpt>
      <trkpt lat="48.60996" lon="-2.30955">
        <ele>37</ele>
        <time>2019-04-02T20:00:06Z</time>
      </trkpt>
      <trkpt lat="48.60936" lon="-2.31104">
        <ele>31</ele>
        <time>2019-04-02T20:01:06Z</time>
      </trkpt>
      <trkpt lat="48.60928" lon="-2.31121">
        <ele>31</ele>
        <time>2019-04-02T20:02:06Z</time>
      </trkpt>
      <trkpt lat="48.60921" lon="-2.31126">
        <ele>31</ele>
        <time>2019-04-02T20:03:06Z</time>
      </trkpt>
      <trkpt lat="48.60917" lon="-2.3113">
        <ele>31</ele>
        <time>2019-04-02T20:04:06Z</time>
      </trkpt>
      <trkpt lat="48.60905" lon="-2.31129">
        <ele>31</ele>
        <time>2019-04-02T20:05:06Z</time>
      </trkpt>
      <trkpt lat="48.60969" lon="-2.31437">
        <ele>11</ele>
        <time>2019-04-02T20:06:06Z</time>
      </trkpt>
      <trkpt lat="48.60994" lon="-2.31584">
        <ele>5</ele>
        <time>2019-04-02T20:07:06Z</time>
      </trkpt>
      <trkpt lat="48.61008" lon="-2.31628">
        <ele>6</ele>
        <time>2019-04-02T20:08:06Z</time>
      </trkpt>
      <trkpt lat="48.61015" lon="-2.31643">
        <ele>6</ele>
        <time>2019-04-02T20:09:06Z</time>
      </trkpt>
      <trkpt lat="48.61008" lon="-2.31656">
        <ele>7</ele>
        <time>2019-04-02T20:10:06Z</time>
      </trkpt>
      <trkpt lat="48.61011" lon="-2.31698">
        <ele>8</ele>
        <time>2019-04-02T20:11:06Z</time>
      </trkpt>
      <trkpt lat="48.6102" lon="-2.31792">
        <ele>8</ele>
        <time>2019-04-02T20:12:06Z</time>
      </trkpt>
      <trkpt lat="48.61031" lon="-2.31877">
        <ele>7</ele>
        <time>2019-04-02T20:13:06Z</time>
      </trkpt>
      <trkpt lat="48.61047" lon="-2.31969">
        <ele>5</ele>
        <time>2019-04-02T20:14:06Z</time>
      </trkpt>
      <trkpt lat="48.61077" lon="-2.32151">
        <ele>6</ele>
        <time>2019-04-02T20:15:06Z</time>
      </trkpt>
      <trkpt lat="48.61097" lon="-2.32234">
        <ele>6</ele>
        <time>2019-04-02T20:16:06Z</time>
      </trkpt>
      <trkpt lat="48.61095" lon="-2.32245">
        <ele>6</ele>
        <time>2019-04-02T20:17:06Z</time>
      </trkpt>
      <trkpt lat="48.61074" lon="-2.32244">
        <ele>6</ele>
        <time>2019-04-02T20:18:06Z</time>
      </trkpt>
      <trkpt lat="48.6108" lon="-2.32266">
        <ele>6</ele>
        <time>2019-04-02T20:19:06Z</time>
      </trkpt>
      <trkpt lat="48.6109" lon="-2.32304">
        <ele>6</ele>
        <time>2019-04-02T20:20:06Z</time>
      </trkpt>
      <trkpt lat="48.6111" lon="-2.32405">
        <ele>6</ele>
        <time>2019-04-02T20:21:06Z</time>
      </trkpt>
      <trkpt lat="48.61106" lon="-2.32441">
        <ele>7</ele>
        <time>2019-04-02T20:22:06Z</time>
      </trkpt>
      <trkpt lat="48.61104" lon="-2.32478">
        <ele>7</ele>
        <time>2019-04-02T20:23:06Z</time>
      </trkpt>
      <trkpt lat="48.61149" lon="-2.32518">
        <ele>6</ele>
        <time>2019-04-02T20:25:06Z</time>
      </trkpt>
      <trkpt lat="48.61173" lon="-2.32547">
        <ele>6</ele>
        <time>2019-04-02T20:26:06Z</time>
      </trkpt>
      <trkpt lat="48.6123" lon="-2.3264">
        <ele>9</ele>
        <time>2019-04-02T20:27:06Z</time>
      </trkpt>
      <trkpt lat="48.61233" lon="-2.32611">
        <ele>8</ele>
        <time>2019-04-02T20:28:06Z</time>
      </trkpt>
      <trkpt lat="48.61254" lon="-2.3256">
        <ele>8</ele>
        <time>2019-04-02T20:29:06Z</time>
      </trkpt>
      <trkpt lat="48.6128" lon="-2.32488">
        <ele>11</ele>
        <time>2019-04-02T20:30:06Z</time>
      </trkpt>
      <trkpt lat="48.61286" lon="-2.32448">
        <ele>10</ele>
        <time>2019-04-02T20:31:06Z</time>
      </trkpt>
      <trkpt lat="48.61284" lon="-2.32395">
        <ele>9</ele>
        <time>2019-04-02T20:32:06Z</time>
      </trkpt>
      <trkpt lat="48.61282" lon="-2.32351">
        <ele>8</ele>
        <time>2019-04-02T20:33:06Z</time>
      </trkpt>
      <trkpt lat="48.61295" lon="-2.32311">
        <ele>9</ele>
        <time>2019-04-02T20:34:06Z</time>
      </trkpt>
      <trkpt lat="48.61324" lon="-2.3226">
        <ele>9</ele>
        <time>2019-04-02T20:35:06Z</time>
      </trkpt>
      <trkpt lat="48.61335" lon="-2.32241">
        <ele>9</ele>
        <time>2019-04-02T20:36:06Z</time>
      </trkpt>
      <trkpt lat="48.61352" lon="-2.32247">
        <ele>11</ele>
        <time>2019-04-02T20:37:06Z</time>
      </trkpt>
      <trkpt lat="48.614" lon="-2.32205">
        <ele>17</ele>
        <time>2019-04-02T20:38:06Z</time>
      </trkpt>
      <trkpt lat="48.61453" lon="-2.32177">
        <ele>21</ele>
        <time>2019-04-02T20:39:06Z</time>
      </trkpt>
      <trkpt lat="48.61519" lon="-2.32181">
        <ele>25</ele>
        <time>2019-04-02T20:40:06Z</time>
      </trkpt>
      <trkpt lat="48.61586" lon="-2.32194">
        <ele>27</ele>
        <time>2019-04-02T20:41:06Z</time>
      </trkpt>
      <trkpt lat="48.61607" lon="-2.32211">
        <ele>28</ele>
        <time>2019-04-02T20:42:06Z</time>
      </trkpt>
      <trkpt lat="48.61625" lon="-2.3223">
        <ele>29</ele>
        <time>2019-04-02T20:43:06Z</time>
      </trkpt>
      <trkpt lat="48.61653" lon="-2.32288">
        <ele>33</ele>
        <time>2019-04-02T20:44:06Z</time>
      </trkpt>
      <trkpt lat="48.61666" lon="-2.32331">
        <ele>36</ele>
        <time>2019-04-02T20:45:06Z</time>
      </trkpt>
      <trkpt lat="48.61661" lon="-2.32386">
        <ele>38</ele>
        <time>2019-04-02T20:46:06Z</time>
      </trkpt>
      <trkpt lat="48.61659" lon="-2.32439">
        <ele>40</ele>
        <time>2019-04-02T20:47:06Z</time>
      </trkpt>
      <trkpt lat="48.6163" lon="-2.32526">
        <ele>44</ele>
        <time>2019-04-02T20:48:06Z</time>
      </trkpt>
      <trkpt lat="48.616" lon="-2.32618">
        <ele>46</ele>
        <time>2019-04-02T20:49:06Z</time>
      </trkpt>
      <trkpt lat="48.61574" lon="-2.32704">
        <ele>42</ele>
        <time>2019-04-02T20:50:06Z</time>
      </trkpt>
      <trkpt lat="48.61566" lon="-2.32775">
        <ele>40</ele>
        <time>2019-04-02T20:51:06Z</time>
      </trkpt>
      <trkpt lat="48.61559" lon="-2.32826">
        <ele>39</ele>
        <time>2019-04-02T20:52:06Z</time>
      </trkpt>
      <trkpt lat="48.61624" lon="-2.32845">
        <ele>41</ele>
        <time>2019-04-02T20:54:06Z</time>
      </trkpt>
      <trkpt lat="48.61651" lon="-2.3284">
        <ele>42</ele>
        <time>2019-04-02T20:55:06Z</time>
      </trkpt>
      <trkpt lat="48.61714" lon="-2.32815">
        <ele>42</ele>
        <time>2019-04-02T20:56:06Z</time>
      </trkpt>
      <trkpt lat="48.61896" lon="-2.32741">
        <ele>25</ele>
        <time>2019-04-02T20:57:06Z</time>
      </trkpt>
      <trkpt lat="48.61922" lon="-2.32751">
        <ele>21</ele>
        <time>2019-04-02T20:59:06Z</time>
      </trkpt>
      <trkpt lat="48.61912" lon="-2.32785">
        <ele>23</ele>
        <time>2019-04-02T21:00:06Z</time>
      </trkpt>
      <trkpt lat="48.61897" lon="-2.32817">
        <ele>26</ele>
        <time>2019-04-02T21:01:06Z</time>
      </trkpt>
      <trkpt lat="48.61893" lon="-2.3284">
        <ele>26</ele>
        <time>2019-04-02T21:02:06Z</time>
      </trkpt>
      <trkpt lat="48.61895" lon="-2.32872">
        <ele>26</ele>
        <time>2019-04-02T21:03:06Z</time>
      </trkpt>
      <trkpt lat="48.61905" lon="-2.32909">
        <ele>23</ele>
        <time>2019-04-02T21:04:06Z</time>
      </trkpt>
      <trkpt lat="48.61913" lon="-2.32933">
        <ele>21</ele>
        <time>2019-04-02T21:05:06Z</time>
      </trkpt>
      <trkpt lat="48.61907" lon="-2.32948">
        <ele>22</ele>
        <time>2019-04-02T21:06:06Z</time>
      </trkpt>
      <trkpt lat="48.61912" lon="-2.32972">
        <ele>19</ele>
        <time>2019-04-02T21:08:06Z</time>
      </trkpt>
      <trkpt lat="48.61915" lon="-2.32995">
        <ele>18</ele>
        <time>2019-04-02T21:09:06Z</time>
      </trkpt>
      <trkpt lat="48.61925" lon="-2.33034">
        <ele>14</ele>
        <time>2019-04-02T21:10:06Z</time>
      </trkpt>
      <trkpt lat="48.6195" lon="-2.33083">
        <ele>9</ele>
        <time>2019-04-02T21:11:06Z</time>
      </trkpt>
      <trkpt lat="48.61974" lon="-2.33081">
        <ele>6</ele>
        <time>2019-04-02T21:12:06Z</time>
      </trkpt>
      <trkpt lat="48.61978" lon="-2.3312">
        <ele>5</ele>
        <time>2019-04-02T21:13:06Z</time>
      </trkpt>
      <trkpt lat="48.61976" lon="-2.33189">
        <ele>5</ele>
        <time>2019-04-02T21:14:06Z</time>
      </trkpt>
      <trkpt lat="48.61981" lon="-2.3322">
        <ele>5</ele>
        <time>2019-04-02T21:15:06Z</time>
      </trkpt>
      <trkpt lat="48.61983" lon="-2.33236">
        <ele>5</ele>
        <time>2019-04-02T21:16:06Z</time>
      </trkpt>
      <trkpt lat="48.61974" lon="-2.33331">
        <ele>5</ele>
        <time>2019-04-02T21:17:06Z</time>
      </trkpt>
      <trkpt lat="48.61965" lon="-2.33353">
        <ele>5</ele>
        <time>2019-04-02T21:18:06Z</time>
      </trkpt>
      <trkpt lat="48.61949" lon="-2.33395">
        <ele>5</ele>
        <time>2019-04-02T21:19:06Z</time>
      </trkpt>
      <trkpt lat="48.61931" lon="-2.33389">
        <ele>5</ele>
        <time>2019-04-02T21:20:06Z</time>
      </trkpt>
      <trkpt lat="48.61922" lon="-2.33396">
        <ele>5</ele>
        <time>2019-04-02T21:21:06Z</time>
      </trkpt>
      <trkpt lat="48.61905" lon="-2.33424">
        <ele>6</ele>
        <time>2019-04-02T21:22:06Z</time>
      </trkpt>
      <trkpt lat="48.61897" lon="-2.33489">
        <ele>5</ele>
        <time>2019-04-02T21:23:06Z</time>
      </trkpt>
      <trkpt lat="48.61888" lon="-2.33548">
        <ele>6</ele>
        <time>2019-04-02T21:24:06Z</time>
      </trkpt>
      <trkpt lat="48.61881" lon="-2.3356">
        <ele>6</ele>
        <time>2019-04-02T21:25:06Z</time>
      </trkpt>
      <trkpt lat="48.61862" lon="-2.3357">
        <ele>7</ele>
        <time>2019-04-02T21:26:06Z</time>
      </trkpt>
      <trkpt lat="48.61843" lon="-2.33599">
        <ele>7</ele>
        <time>2019-04-02T21:27:06Z</time>
      </trkpt>
      <trkpt lat="48.61872" lon="-2.33633">
        <ele>6</ele>
        <time>2019-04-02T21:28:06Z</time>
      </trkpt>
      <trkpt lat="48.61877" lon="-2.33652">
        <ele>6</ele>
        <time>2019-04-02T21:29:06Z</time>
      </trkpt>
      <trkpt lat="48.6202" lon="-2.33823">
        <ele>12</ele>
        <time>2019-04-02T21:30:06Z</time>
      </trkpt>
      <trkpt lat="48.62053" lon="-2.33778">
        <ele>16</ele>
        <time>2019-04-02T21:31:06Z</time>
      </trkpt>
      <trkpt lat="48.62106" lon="-2.33656">
        <ele>17</ele>
        <time>2019-04-02T21:32:06Z</time>
      </trkpt>
      <trkpt lat="48.62131" lon="-2.33612">
        <ele>17</ele>
        <time>2019-04-02T21:33:06Z</time>
      </trkpt>
      <trkpt lat="48.62144" lon="-2.33598">
        <ele>18</ele>
        <time>2019-04-02T21:34:06Z</time>
      </trkpt>
      <trkpt lat="48.62195" lon="-2.33524">
        <ele>22</ele>
        <time>2019-04-02T21:35:06Z</time>
      </trkpt>
      <trkpt lat="48.62204" lon="-2.33511">
        <ele>23</ele>
        <time>2019-04-02T21:36:06Z</time>
      </trkpt>
      <trkpt lat="48.62241" lon="-2.33478">
        <ele>27</ele>
        <time>2019-04-02T21:37:06Z</time>
      </trkpt>
      <trkpt lat="48.62269" lon="-2.3346">
        <ele>30</ele>
        <time>2019-04-02T21:38:06Z</time>
      </trkpt>
      <trkpt lat="48.62295" lon="-2.3343">
        <ele>30</ele>
        <time>2019-04-02T21:39:06Z</time>
      </trkpt>
      <trkpt lat="48.62313" lon="-2.334">
        <ele>30</ele>
        <time>2019-04-02T21:40:06Z</time>
      </trkpt>
      <trkpt lat="48.62331" lon="-2.33368">
        <ele>29</ele>
        <time>2019-04-02T21:41:06Z</time>
      </trkpt>
      <trkpt lat="48.62339" lon="-2.33346">
        <ele>28</ele>
        <time>2019-04-02T21:42:06Z</time>
      </trkpt>
      <trkpt lat="48.62358" lon="-2.333">
        <ele>29</ele>
        <time>2019-04-02T21:43:06Z</time>
      </trkpt>
      <trkpt lat="48.62397" lon="-2.33207">
        <ele>32</ele>
        <time>2019-04-02T21:44:06Z</time>
      </trkpt>
      <trkpt lat="48.62413" lon="-2.33174">
        <ele>32</ele>
        <time>2019-04-02T21:45:06Z</time>
      </trkpt>
      <trkpt lat="48.62432" lon="-2.33141">
        <ele>32</ele>
        <time>2019-04-02T21:46:06Z</time>
      </trkpt>
      <trkpt lat="48.62455" lon="-2.33104">
        <ele>32</ele>
        <time>2019-04-02T21:47:06Z</time>
      </trkpt>
      <trkpt lat="48.62489" lon="-2.33057">
        <ele>34</ele>
        <time>2019-04-02T21:48:06Z</time>
      </trkpt>
      <trkpt lat="48.6258" lon="-2.32926">
        <ele>33</ele>
        <time>2019-04-02T21:49:06Z</time>
      </trkpt>
      <trkpt lat="48.62627" lon="-2.32866">
        <ele>34</ele>
        <time>2019-04-02T21:50:06Z</time>
      </trkpt>
      <trkpt lat="48.62662" lon="-2.3282">
        <ele>37</ele>
        <time>2019-04-02T21:51:06Z</time>
      </trkpt>
      <trkpt lat="48.62675" lon="-2.32803">
        <ele>36</ele>
        <time>2019-04-02T21:52:06Z</time>
      </trkpt>
      <trkpt lat="48.62707" lon="-2.32773">
        <ele>36</ele>
        <time>2019-04-02T21:53:06Z</time>
      </trkpt>
      <trkpt lat="48.62722" lon="-2.32808">
        <ele>41</ele>
        <time>2019-04-02T21:54:06Z</time>
      </trkpt>
      <trkpt lat="48.62737" lon="-2.32851">
        <ele>45</ele>
        <time>2019-04-02T21:55:06Z</time>
      </trkpt>
      <trkpt lat="48.6273" lon="-2.32909">
        <ele>46</ele>
        <time>2019-04-02T21:58:06Z</time>
      </trkpt>
      <trkpt lat="48.62718" lon="-2.32931">
        <ele>48</ele>
        <time>2019-04-02T21:59:06Z</time>
      </trkpt>
      <trkpt lat="48.62702" lon="-2.32949">
        <ele>50</ele>
        <time>2019-04-02T22:00:06Z</time>
      </trkpt>
      <trkpt lat="48.62693" lon="-2.32957">
        <ele>51</ele>
        <time>2019-04-02T22:01:06Z</time>
      </trkpt>
      <trkpt lat="48.62687" lon="-2.32972">
        <ele>52</ele>
        <time>2019-04-02T22:02:06Z</time>
      </trkpt>
      <trkpt lat="48.62684" lon="-2.32986">
        <ele>54</ele>
        <time>2019-04-02T22:03:06Z</time>
      </trkpt>
      <trkpt lat="48.62678" lon="-2.32992">
        <ele>54</ele>
        <time>2019-04-02T22:04:06Z</time>
      </trkpt>
      <trkpt lat="48.62672" lon="-2.32998">
        <ele>55</ele>
        <time>2019-04-02T22:05:06Z</time>
      </trkpt>
      <trkpt lat="48.6267" lon="-2.33046">
        <ele>55</ele>
        <time>2019-04-02T22:06:06Z</time>
      </trkpt>
      <trkpt lat="48.62672" lon="-2.33069">
        <ele>55</ele>
        <time>2019-04-02T22:07:06Z</time>
      </trkpt>
      <trkpt lat="48.62675" lon="-2.331">
        <ele>54</ele>
        <time>2019-04-02T22:08:06Z</time>
      </trkpt>
      <trkpt lat="48.62684" lon="-2.33159">
        <ele>53</ele>
        <time>2019-04-02T22:09:06Z</time>
      </trkpt>
      <trkpt lat="48.62682" lon="-2.33187">
        <ele>53</ele>
        <time>2019-04-02T22:10:06Z</time>
      </trkpt>
      <trkpt lat="48.62674" lon="-2.33208">
        <ele>53</ele>
        <time>2019-04-02T22:11:06Z</time>
      </trkpt>
      <trkpt lat="48.62655" lon="-2.3324">
        <ele>54</ele>
        <time>2019-04-02T22:12:06Z</time>
      </trkpt>
      <trkpt lat="48.62646" lon="-2.33254">
        <ele>55</ele>
        <time>2019-04-02T22:13:06Z</time>
      </trkpt>
      <trkpt lat="48.6264" lon="-2.33268">
        <ele>56</ele>
        <time>2019-04-02T22:14:06Z</time>
      </trkpt>
      <trkpt lat="48.62635" lon="-2.33286">
        <ele>57</ele>
        <time>2019-04-02T22:15:06Z</time>
      </trkpt>
      <trkpt lat="48.62634" lon="-2.33308">
        <ele>58</ele>
        <time>2019-04-02T22:16:06Z</time>
      </trkpt>
      <trkpt lat="48.62651" lon="-2.33353">
        <ele>59</ele>
        <time>2019-04-02T22:17:06Z</time>
      </trkpt>
      <trkpt lat="48.62672" lon="-2.33356">
        <ele>59</ele>
        <time>2019-04-02T22:18:06Z</time>
      </trkpt>
      <trkpt lat="48.62683" lon="-2.33365">
        <ele>59</ele>
        <time>2019-04-02T22:19:06Z</time>
      </trkpt>
      <trkpt lat="48.62689" lon="-2.33383">
        <ele>60</ele>
        <time>2019-04-02T22:20:06Z</time>
      </trkpt>
      <trkpt lat="48.62693" lon="-2.33395">
        <ele>60</ele>
        <time>2019-04-02T22:21:06Z</time>
      </trkpt>
      <trkpt lat="48.62705" lon="-2.33417">
        <ele>61</ele>
        <time>2019-04-02T22:22:06Z</time>
      </trkpt>
      <trkpt lat="48.62632" lon="-2.33541">
        <ele>65</ele>
        <time>2019-04-02T22:23:06Z</time>
      </trkpt>
      <trkpt lat="48.62613" lon="-2.33576">
        <ele>66</ele>
        <time>2019-04-02T22:24:06Z</time>
      </trkpt>
      <trkpt lat="48.62603" lon="-2.33599">
        <ele>66</ele>
        <time>2019-04-02T22:25:06Z</time>
      </trkpt>
      <trkpt lat="48.62589" lon="-2.336">
        <ele>66</ele>
        <time>2019-04-02T22:27:06Z</time>
      </trkpt>
      <trkpt lat="48.62509" lon="-2.33617">
        <ele>66</ele>
        <time>2019-04-02T22:28:06Z</time>
      </trkpt>
      <trkpt lat="48.62454" lon="-2.33644">
        <ele>66</ele>
        <time>2019-04-02T22:29:06Z</time>
      </trkpt>
      <trkpt lat="48.6234" lon="-2.3372">
        <ele>64</ele>
        <time>2019-04-02T22:30:06Z</time>
      </trkpt>
      <trkpt lat="48.62321" lon="-2.33731">
        <ele>62</ele>
        <time>2019-04-02T22:31:06Z</time>
      </trkpt>
      <trkpt lat="48.62338" lon="-2.33761">
        <ele>64</ele>
        <time>2019-04-02T22:32:06Z</time>
      </trkpt>
      <trkpt lat="48.62253" lon="-2.33855">
        <ele>55</ele>
        <time>2019-04-02T22:33:06Z</time>
      </trkpt>
      <trkpt lat="48.62214" lon="-2.33875">
        <ele>48</ele>
        <time>2019-04-02T22:34:06Z</time>
      </trkpt>
      <trkpt lat="48.6218" lon="-2.33894">
        <ele>41</ele>
        <time>2019-04-02T22:35:06Z</time>
      </trkpt>
      <trkpt lat="48.62191" lon="-2.33914">
        <ele>42</ele>
        <time>2019-04-02T22:36:06Z</time>
      </trkpt>
      <trkpt lat="48.62208" lon="-2.33929">
        <ele>45</ele>
        <time>2019-04-02T22:37:06Z</time>
      </trkpt>
      <trkpt lat="48.62218" lon="-2.33942">
        <ele>46</ele>
        <time>2019-04-02T22:38:06Z</time>
      </trkpt>
      <trkpt lat="48.62225" lon="-2.3396">
        <ele>47</ele>
        <time>2019-04-02T22:39:06Z</time>
      </trkpt>
      <trkpt lat="48.62226" lon="-2.3397">
        <ele>47</ele>
        <time>2019-04-02T22:40:06Z</time>
      </trkpt>
      <trkpt lat="48.62223" lon="-2.33981">
        <ele>47</ele>
        <time>2019-04-02T22:41:06Z</time>
      </trkpt>
      <trkpt lat="48.62219" lon="-2.33987">
        <ele>46</ele>
        <time>2019-04-02T22:42:06Z</time>
      </trkpt>
      <trkpt lat="48.622" lon="-2.33986">
        <ele>44</ele>
        <time>2019-04-02T22:43:06Z</time>
      </trkpt>
      <trkpt lat="48.62176" lon="-2.3396">
        <ele>41</ele>
        <time>2019-04-02T22:44:06Z</time>
      </trkpt>
      <trkpt lat="48.62122" lon="-2.33944">
        <ele>30</ele>
        <time>2019-04-02T22:45:06Z</time>
      </trkpt>
      <trkpt lat="48.62101" lon="-2.33936">
        <ele>26</ele>
        <time>2019-04-02T22:46:06Z</time>
      </trkpt>
      <trkpt lat="48.6206" lon="-2.33906">
        <ele>20</ele>
        <time>2019-04-02T22:47:06Z</time>
      </trkpt>
      <trkpt lat="48.62059" lon="-2.33882">
        <ele>20</ele>
        <time>2019-04-02T22:48:06Z</time>
      </trkpt>
      <trkpt lat="48.6201" lon="-2.33824">
        <ele>10</ele>
        <time>2019-04-02T22:49:06Z</time>
      </trkpt>
      <trkpt lat="48.61952" lon="-2.33887">
        <ele>12</ele>
        <time>2019-04-02T22:50:06Z</time>
      </trkpt>
      <trkpt lat="48.61936" lon="-2.33903">
        <ele>12</ele>
        <time>2019-04-02T22:51:06Z</time>
      </trkpt>
      <trkpt lat="48.61929" lon="-2.33917">
        <ele>12</ele>
        <time>2019-04-02T22:52:06Z</time>
      </trkpt>
      <trkpt lat="48.61918" lon="-2.33948">
        <ele>15</ele>
        <time>2019-04-02T22:53:06Z</time>
      </trkpt>
      <trkpt lat="48.61907" lon="-2.3397">
        <ele>17</ele>
        <time>2019-04-02T22:54:06Z</time>
      </trkpt>
      <trkpt lat="48.6189" lon="-2.33994">
        <ele>18</ele>
        <time>2019-04-02T22:55:06Z</time>
      </trkpt>
      <trkpt lat="48.61882" lon="-2.34015">
        <ele>19</ele>
        <time>2019-04-02T22:56:06Z</time>
      </trkpt>
      <trkpt lat="48.6186" lon="-2.34058">
        <ele>21</ele>
        <time>2019-04-02T22:57:06Z</time>
      </trkpt>
      <trkpt lat="48.61849" lon="-2.34083">
        <ele>21</ele>
        <time>2019-04-02T22:58:06Z</time>
      </trkpt>
      <trkpt lat="48.61834" lon="-2.3411">
        <ele>22</ele>
        <time>2019-04-02T22:59:06Z</time>
      </trkpt>
      <trkpt lat="48.61825" lon="-2.34119">
        <ele>22</ele>
        <time>2019-04-02T23:00:06Z</time>
      </trkpt>
      <trkpt lat="48.61823" lon="-2.34145">
        <ele>27</ele>
        <time>2019-04-02T23:01:06Z</time>
      </trkpt>
      <trkpt lat="48.61819" lon="-2.34153">
        <ele>27</ele>
        <time>2019-04-02T23:02:06Z</time>
      </trkpt>
      <trkpt lat="48.61804" lon="-2.34165">
        <ele>26</ele>
        <time>2019-04-02T23:03:06Z</time>
      </trkpt>
      <trkpt lat="48.61799" lon="-2.3418">
        <ele>27</ele>
        <time>2019-04-02T23:04:06Z</time>
      </trkpt>
      <trkpt lat="48.61798" lon="-2.34196">
        <ele>30</ele>
        <time>2019-04-02T23:05:06Z</time>
      </trkpt>
      <trkpt lat="48.6178" lon="-2.3421">
        <ele>27</ele>
        <time>2019-04-02T23:06:06Z</time>
      </trkpt>
      <trkpt lat="48.61764" lon="-2.34204">
        <ele>22</ele>
        <time>2019-04-02T23:07:06Z</time>
      </trkpt>
      <trkpt lat="48.61744" lon="-2.34237">
        <ele>22</ele>
        <time>2019-04-02T23:08:06Z</time>
      </trkpt>
      <trkpt lat="48.61737" lon="-2.34247">
        <ele>23</ele>
        <time>2019-04-02T23:09:06Z</time>
      </trkpt>
      <trkpt lat="48.61687" lon="-2.3429">
        <ele>22</ele>
        <time>2019-04-02T23:10:06Z</time>
      </trkpt>
      <trkpt lat="48.6167" lon="-2.34306">
        <ele>20</ele>
        <time>2019-04-02T23:11:06Z</time>
      </trkpt>
      <trkpt lat="48.61654" lon="-2.34325">
        <ele>20</ele>
        <time>2019-04-02T23:12:06Z</time>
      </trkpt>
      <trkpt lat="48.61639" lon="-2.34342">
        <ele>20</ele>
        <time>2019-04-02T23:13:06Z</time>
      </trkpt>
      <trkpt lat="48.61632" lon="-2.34365">
        <ele>23</ele>
        <time>2019-04-02T23:14:06Z</time>
      </trkpt>
      <trkpt lat="48.61622" lon="-2.34386">
        <ele>25</ele>
        <time>2019-04-02T23:15:06Z</time>
      </trkpt>
      <trkpt lat="48.61605" lon="-2.34404">
        <ele>24</ele>
        <time>2019-04-02T23:16:06Z</time>
      </trkpt>
      <trkpt lat="48.61598" lon="-2.34406">
        <ele>22</ele>
        <time>2019-04-02T23:17:06Z</time>
      </trkpt>
      <trkpt lat="48.61584" lon="-2.34411">
        <ele>19</ele>
        <time>2019-04-02T23:19:06Z</time>
      </trkpt>
      <trkpt lat="48.6157" lon="-2.3443">
        <ele>20</ele>
        <time>2019-04-02T23:20:06Z</time>
      </trkpt>
      <trkpt lat="48.61559" lon="-2.34452">
        <ele>20</ele>
        <time>2019-04-02T23:21:06Z</time>
      </trkpt>
      <trkpt lat="48.61549" lon="-2.34485">
        <ele>21</ele>
        <time>2019-04-02T23:22:06Z</time>
      </trkpt>
      <trkpt lat="48.61521" lon="-2.34539">
        <ele>18</ele>
        <time>2019-04-02T23:23:06Z</time>
      </trkpt>
      <trkpt lat="48.61512" lon="-2.34543">
        <ele>15</ele>
        <time>2019-04-02T23:24:06Z</time>
      </trkpt>
      <trkpt lat="48.61501" lon="-2.3457">
        <ele>13</ele>
        <time>2019-04-02T23:25:06Z</time>
      </trkpt>
      <trkpt lat="48.61486" lon="-2.34608">
        <ele>15</ele>
        <time>2019-04-02T23:26:06Z</time>
      </trkpt>
      <trkpt lat="48.61477" lon="-2.34653">
        <ele>19</ele>
        <time>2019-04-02T23:27:06Z</time>
      </trkpt>
      <trkpt lat="48.61455" lon="-2.34725">
        <ele>22</ele>
        <time>2019-04-02T23:28:06Z</time>
      </trkpt>
      <trkpt lat="48.61432" lon="-2.34788">
        <ele>22</ele>
        <time>2019-04-02T23:29:06Z</time>
      </trkpt>
      <trkpt lat="48.614" lon="-2.3486">
        <ele>24</ele>
        <time>2019-04-02T23:30:06Z</time>
      </trkpt>
      <trkpt lat="48.61376" lon="-2.34901">
        <ele>25</ele>
        <time>2019-04-02T23:31:06Z</time>
      </trkpt>
      <trkpt lat="48.61341" lon="-2.34954">
        <ele>27</ele>
        <time>2019-04-02T23:32:06Z</time>
      </trkpt>
      <trkpt lat="48.61277" lon="-2.34987">
        <ele>24</ele>
        <time>2019-04-02T23:33:06Z</time>
      </trkpt>
      <trkpt lat="48.61216" lon="-2.35003">
        <ele>17</ele>
        <time>2019-04-02T23:34:06Z</time>
      </trkpt>
      <trkpt lat="48.6115" lon="-2.35054">
        <ele>13</ele>
        <time>2019-04-02T23:35:06Z</time>
      </trkpt>
      <trkpt lat="48.61076" lon="-2.35084">
        <ele>10</ele>
        <time>2019-04-02T23:36:06Z</time>
      </trkpt>
      <trkpt lat="48.61027" lon="-2.35079">
        <ele>12</ele>
        <time>2019-04-02T23:37:06Z</time>
      </trkpt>
      <trkpt lat="48.61022" lon="-2.35112">
        <ele>14</ele>
        <time>2019-04-02T23:38:06Z</time>
      </trkpt>
      <trkpt lat="48.61007" lon="-2.35123">
        <ele>16</ele>
        <time>2019-04-02T23:39:06Z</time>
      </trkpt>
      <trkpt lat="48.60868" lon="-2.35156">
        <ele>20</ele>
        <time>2019-04-02T23:40:06Z</time>
      </trkpt>
      <trkpt lat="48.60828" lon="-2.3513">
        <ele>15</ele>
        <time>2019-04-02T23:41:06Z</time>
      </trkpt>
      <trkpt lat="48.60808" lon="-2.35128">
        <ele>13</ele>
        <time>2019-04-02T23:42:06Z</time>
      </trkpt>
      <trkpt lat="48.60737" lon="-2.35161">
        <ele>9</ele>
        <time>2019-04-02T23:43:06Z</time>
      </trkpt>
      <trkpt lat="48.60661" lon="-2.35207">
        <ele>6</ele>
        <time>2019-04-02T23:44:06Z</time>
      </trkpt>
      <trkpt lat="48.60643" lon="-2.35209">
        <ele>7</ele>
        <time>2019-04-02T23:45:06Z</time>
      </trkpt>
      <trkpt lat="48.60622" lon="-2.35204">
        <ele>7</ele>
        <time>2019-04-02T23:46:06Z</time>
      </trkpt>
      <trkpt lat="48.60598" lon="-2.35192">
        <ele>7</ele>
        <time>2019-04-02T23:47:06Z</time>
      </trkpt>
      <trkpt lat="48.60609" lon="-2.35175">
        <ele>7</ele>
        <time>2019-04-02T23:48:06Z</time>
      </trkpt>
      <trkpt lat="48.60605" lon="-2.35113">
        <ele>11</ele>
        <time>2019-04-02T23:49:06Z</time>
      </trkpt>
      <trkpt lat="48.60613" lon="-2.35101">
        <ele>11</ele>
        <time>2019-04-02T23:50:06Z</time>
      </trkpt>
      <trkpt lat="48.6064" lon="-2.35093">
        <ele>10</ele>
        <time>2019-04-02T23:51:06Z</time>
      </trkpt>
      <trkpt lat="48.60695" lon="-2.35073">
        <ele>10</ele>
        <time>2019-04-02T23:52:06Z</time>
      </trkpt>
      <trkpt lat="48.60711" lon="-2.35065">
        <ele>10</ele>
        <time>2019-04-02T23:53:06Z</time>
      </trkpt>
      <trkpt lat="48.60719" lon="-2.35051">
        <ele>11</ele>
        <time>2019-04-02T23:54:06Z</time>
      </trkpt>
      <trkpt lat="48.60725" lon="-2.35034">
        <ele>12</ele>
        <time>2019-04-02T23:55:06Z</time>
      </trkpt>
      <trkpt lat="48.60732" lon="-2.34994">
        <ele>15</ele>
        <time>2019-04-02T23:56:06Z</time>
      </trkpt>
      <trkpt lat="48.60743" lon="-2.34948">
        <ele>21</ele>
        <time>2019-04-02T23:58:06Z</time>
      </trkpt>
      <trkpt lat="48.60754" lon="-2.34931">
        <ele>22</ele>
        <time>2019-04-02T23:59:06Z</time>
      </trkpt>
      <trkpt lat="48.60762" lon="-2.34916">
        <ele>23</ele>
        <time>2019-04-03T00:00:06Z</time>
      </trkpt>
      <trkpt lat="48.60764" lon="-2.34898">
        <ele>25</ele>
        <time>2019-04-03T00:01:06Z</time>
      </trkpt>
      <trkpt lat="48.6077" lon="-2.34888">
        <ele>25</ele>
        <time>2019-04-03T00:02:06Z</time>
      </trkpt>
      <trkpt lat="48.60783" lon="-2.34863">
        <ele>26</ele>
        <time>2019-04-03T00:03:06Z</time>
      </trkpt>
      <trkpt lat="48.60793" lon="-2.34847">
        <ele>25</ele>
        <time>2019-04-03T00:04:06Z</time>
      </trkpt>
      <trkpt lat="48.6081" lon="-2.34815">
        <ele>26</ele>
        <time>2019-04-03T00:05:06Z</time>
      </trkpt>
      <trkpt lat="48.60822" lon="-2.34801">
        <ele>25</ele>
        <time>2019-04-03T00:06:06Z</time>
      </trkpt>
      <trkpt lat="48.60828" lon="-2.34783">
        <ele>27</ele>
        <time>2019-04-03T00:07:06Z</time>
      </trkpt>
      <trkpt lat="48.60833" lon="-2.34769">
        <ele>28</ele>
        <time>2019-04-03T00:08:06Z</time>
      </trkpt>
      <trkpt lat="48.60835" lon="-2.34747">
        <ele>31</ele>
        <time>2019-04-03T00:09:06Z</time>
      </trkpt>
      <trkpt lat="48.60837" lon="-2.34723">
        <ele>32</ele>
        <time>2019-04-03T00:10:06Z</time>
      </trkpt>
      <trkpt lat="48.60844" lon="-2.34693">
        <ele>33</ele>
        <time>2019-04-03T00:11:06Z</time>
      </trkpt>
      <trkpt lat="48.60853" lon="-2.34674">
        <ele>33</ele>
        <time>2019-04-03T00:12:06Z</time>
      </trkpt>
      <trkpt lat="48.60865" lon="-2.34661">
        <ele>32</ele>
        <time>2019-04-03T00:13:06Z</time>
      </trkpt>
      <trkpt lat="48.60879" lon="-2.34645">
        <ele>33</ele>
        <time>2019-04-03T00:14:06Z</time>
      </trkpt>
      <trkpt lat="48.60883" lon="-2.34636">
        <ele>33</ele>
        <time>2019-04-03T00:15:06Z</time>
      </trkpt>
      <trkpt lat="48.60881" lon="-2.34623">
        <ele>35</ele>
        <time>2019-04-03T00:16:06Z</time>
      </trkpt>
      <trkpt lat="48.60879" lon="-2.34612">
        <ele>36</ele>
        <time>2019-04-03T00:17:06Z</time>
      </trkpt>
      <trkpt lat="48.60878" lon="-2.34597">
        <ele>37</ele>
        <time>2019-04-03T00:18:06Z</time>
      </trkpt>
      <trkpt lat="48.60909" lon="-2.34567">
        <ele>38</ele>
        <time>2019-04-03T00:20:06Z</time>
      </trkpt>
      <trkpt lat="48.60921" lon="-2.34554">
        <ele>38</ele>
        <time>2019-04-03T00:21:06Z</time>
      </trkpt>
      <trkpt lat="48.60926" lon="-2.34538">
        <ele>38</ele>
        <time>2019-04-03T00:22:06Z</time>
      </trkpt>
      <trkpt lat="48.60928" lon="-2.34526">
        <ele>38</ele>
        <time>2019-04-03T00:23:06Z</time>
      </trkpt>
      <trkpt lat="48.60934" lon="-2.34514">
        <ele>39</ele>
        <time>2019-04-03T00:24:06Z</time>
      </trkpt>
      <trkpt lat="48.60956" lon="-2.34497">
        <ele>38</ele>
        <time>2019-04-03T00:25:06Z</time>
      </trkpt>
      <trkpt lat="48.60965" lon="-2.34487">
        <ele>38</ele>
        <time>2019-04-03T00:26:06Z</time>
      </trkpt>
      <trkpt lat="48.60968" lon="-2.34472">
        <ele>38</ele>
        <time>2019-04-03T00:27:06Z</time>
      </trkpt>
      <trkpt lat="48.60972" lon="-2.34458">
        <ele>39</ele>
        <time>2019-04-03T00:28:06Z</time>
      </trkpt>
      <trkpt lat="48.60975" lon="-2.34451">
        <ele>39</ele>
        <time>2019-04-03T00:29:06Z</time>
      </trkpt>
      <trkpt lat="48.61014" lon="-2.34422">
        <ele>38</ele>
        <time>2019-04-03T00:30:06Z</time>
      </trkpt>
      <trkpt lat="48.6099" lon="-2.34374">
        <ele>40</ele>
        <time>2019-04-03T00:31:06Z</time>
      </trkpt>
      <trkpt lat="48.60966" lon="-2.34305">
        <ele>42</ele>
        <time>2019-04-03T00:32:06Z</time>
      </trkpt>
      <trkpt lat="48.60943" lon="-2.34232">
        <ele>45</ele>
        <time>2019-04-03T00:33:06Z</time>
      </trkpt>
      <trkpt lat="48.60924" lon="-2.34165">
        <ele>48</ele>
        <time>2019-04-03T00:34:06Z</time>
      </trkpt>
      <trkpt lat="48.60913" lon="-2.34114">
        <ele>49</ele>
        <time>2019-04-03T00:35:06Z</time>
      </trkpt>
      <trkpt lat="48.60909" lon="-2.3409">
        <ele>49</ele>
        <time>2019-04-03T00:36:06Z</time>
      </trkpt>
      <trkpt lat="48.60906" lon="-2.34044">
        <ele>50</ele>
        <time>2019-04-03T00:37:06Z</time>
      </trkpt>
      <trkpt lat="48.609" lon="-2.33957">
        <ele>48</ele>
        <time>2019-04-03T00:38:06Z</time>
      </trkpt>
      <trkpt lat="48.60901" lon="-2.3389">
        <ele>46</ele>
        <time>2019-04-03T00:39:06Z</time>
      </trkpt>
      <trkpt lat="48.60902" lon="-2.33842">
        <ele>45</ele>
        <time>2019-04-03T00:40:06Z</time>
      </trkpt>
      <trkpt lat="48.60906" lon="-2.33812">
        <ele>44</ele>
        <time>2019-04-03T00:41:06Z</time>
      </trkpt>
      <trkpt lat="48.60908" lon="-2.33774">
        <ele>43</ele>
        <time>2019-04-03T00:42:06Z</time>
      </trkpt>
      <trkpt lat="48.60899" lon="-2.33773">
        <ele>43</ele>
        <time>2019-04-03T00:43:06Z</time>
      </trkpt>
      <trkpt lat="48.60887" lon="-2.33778">
        <ele>43</ele>
        <time>2019-04-03T00:44:06Z</time>
      </trkpt>
      <trkpt lat="48.60872" lon="-2.33751">
        <ele>41</ele>
        <time>2019-04-03T00:45:06Z</time>
      </trkpt>
      <trkpt lat="48.60877" lon="-2.33718">
        <ele>40</ele>
        <time>2019-04-03T00:46:06Z</time>
      </trkpt>
      <trkpt lat="48.60883" lon="-2.33696">
        <ele>39</ele>
        <time>2019-04-03T00:47:06Z</time>
      </trkpt>
      <trkpt lat="48.60892" lon="-2.33682">
        <ele>39</ele>
        <time>2019-04-03T00:48:06Z</time>
      </trkpt>
      <trkpt lat="48.60897" lon="-2.33668">
        <ele>39</ele>
        <time>2019-04-03T00:49:06Z</time>
      </trkpt>
      <trkpt lat="48.60927" lon="-2.33553">
        <ele>34</ele>
        <time>2019-04-03T00:50:06Z</time>
      </trkpt>
      <trkpt lat="48.6096" lon="-2.33447">
        <ele>30</ele>
        <time>2019-04-03T00:51:06Z</time>
      </trkpt>
      <trkpt lat="48.60976" lon="-2.33412">
        <ele>29</ele>
        <time>2019-04-03T00:52:06Z</time>
      </trkpt>
      <trkpt lat="48.60993" lon="-2.33382">
        <ele>28</ele>
        <time>2019-04-03T00:53:06Z</time>
      </trkpt>
      <trkpt lat="48.6101" lon="-2.3336">
        <ele>28</ele>
        <time>2019-04-03T00:54:06Z</time>
      </trkpt>
      <trkpt lat="48.61033" lon="-2.33339">
        <ele>29</ele>
        <time>2019-04-03T00:55:06Z</time>
      </trkpt>
      <trkpt lat="48.61034" lon="-2.33321">
        <ele>28</ele>
        <time>2019-04-03T00:56:06Z</time>
      </trkpt>
      <trkpt lat="48.61029" lon="-2.33313">
        <ele>27</ele>
        <time>2019-04-03T00:57:06Z</time>
      </trkpt>
      <trkpt lat="48.6102" lon="-2.33285">
        <ele>26</ele>
        <time>2019-04-03T00:58:06Z</time>
      </trkpt>
      <trkpt lat="48.61004" lon="-2.33255">
        <ele>24</ele>
        <time>2019-04-03T00:59:06Z</time>
      </trkpt>
      <trkpt lat="48.60988" lon="-2.33235">
        <ele>21</ele>
        <time>2019-04-03T01:00:06Z</time>
      </trkpt>
      <trkpt lat="48.60969" lon="-2.33201">
        <ele>18</ele>
        <time>2019-04-03T01:01:06Z</time>
      </trkpt>
      <trkpt lat="48.60943" lon="-2.33149">
        <ele>13</ele>
        <time>2019-04-03T01:02:06Z</time>
      </trkpt>
      <trkpt lat="48.60931" lon="-2.33119">
        <ele>11</ele>
        <time>2019-04-03T01:03:06Z</time>
      </trkpt>
      <trkpt lat="48.60922" lon="-2.33081">
        <ele>8</ele>
        <time>2019-04-03T01:04:06Z</time>
      </trkpt>
      <trkpt lat="48.60915" lon="-2.33073">
        <ele>8</ele>
        <time>2019-04-03T01:05:06Z</time>
      </trkpt>
      <trkpt lat="48.60903" lon="-2.33072">
        <ele>8</ele>
        <time>2019-04-03T01:06:06Z</time>
      </trkpt>
      <trkpt lat="48.60895" lon="-2.33092">
        <ele>8</ele>
        <time>2019-04-03T01:07:06Z</time>
      </trkpt>
      <trkpt lat="48.60882" lon="-2.33099">
        <ele>8</ele>
        <time>2019-04-03T01:08:06Z</time>
      </trkpt>
      <trkpt lat="48.60868" lon="-2.33105">
        <ele>8</ele>
        <time>2019-04-03T01:09:06Z</time>
      </trkpt>
      <trkpt lat="48.60853" lon="-2.3311">
        <ele>7</ele>
        <time>2019-04-03T01:10:06Z</time>
      </trkpt>
      <trkpt lat="48.60841" lon="-2.33126">
        <ele>7</ele>
        <time>2019-04-03T01:11:06Z</time>
      </trkpt>
      <trkpt lat="48.60831" lon="-2.33148">
        <ele>7</ele>
        <time>2019-04-03T01:12:06Z</time>
      </trkpt>
      <trkpt lat="48.60824" lon="-2.33162">
        <ele>8</ele>
        <time>2019-04-03T01:13:06Z</time>
      </trkpt>
      <trkpt lat="48.60811" lon="-2.33171">
        <ele>8</ele>
        <time>2019-04-03T01:14:06Z</time>
      </trkpt>
      <trkpt lat="48.60788" lon="-2.33183">
        <ele>9</ele>
        <time>2019-04-03T01:15:06Z</time>
      </trkpt>
      <trkpt lat="48.60769" lon="-2.33199">
        <ele>10</ele>
        <time>2019-04-03T01:16:06Z</time>
      </trkpt>
      <trkpt lat="48.60763" lon="-2.33139">
        <ele>11</ele>
        <time>2019-04-03T01:17:06Z</time>
      </trkpt>
      <trkpt lat="48.60745" lon="-2.33081">
        <ele>10</ele>
        <time>2019-04-03T01:18:06Z</time>
      </trkpt>
      <trkpt lat="48.60732" lon="-2.33055">
        <ele>10</ele>
        <time>2019-04-03T01:19:06Z</time>
      </trkpt>
      <trkpt lat="48.60701" lon="-2.32997">
        <ele>10</ele>
        <time>2019-04-03T01:20:06Z</time>
      </trkpt>
      <trkpt lat="48.60671" lon="-2.32931">
        <ele>12</ele>
        <time>2019-04-03T01:21:06Z</time>
      </trkpt>
      <trkpt lat="48.60641" lon="-2.32856">
        <ele>14</ele>
        <time>2019-04-03T01:22:06Z</time>
      </trkpt>
      <trkpt lat="48.6061" lon="-2.32779">
        <ele>14</ele>
        <time>2019-04-03T01:23:06Z</time>
      </trkpt>
      <trkpt lat="48.60549" lon="-2.32815">
        <ele>16</ele>
        <time>2019-04-03T01:24:06Z</time>
      </trkpt>
      <trkpt lat="48.6051" lon="-2.32851">
        <ele>16</ele>
        <time>2019-04-03T01:25:06Z</time>
      </trkpt>
      <trkpt lat="48.60474" lon="-2.3288">
        <ele>18</ele>
        <time>2019-04-03T01:26:06Z</time>
      </trkpt>
      <trkpt lat="48.60441" lon="-2.32905">
        <ele>19</ele>
        <time>2019-04-03T01:27:06Z</time>
      </trkpt>
      <trkpt lat="48.60407" lon="-2.32921">
        <ele>20</ele>
        <time>2019-04-03T01:28:06Z</time>
      </trkpt>
      <trkpt lat="48.60395" lon="-2.32851">
        <ele>22</ele>
        <time>2019-04-03T01:29:06Z</time>
      </trkpt>
      <trkpt lat="48.60376" lon="-2.32804">
        <ele>24</ele>
        <time>2019-04-03T01:30:06Z</time>
      </trkpt>
      <trkpt lat="48.60367" lon="-2.32786">
        <ele>24</ele>
        <time>2019-04-03T01:31:06Z</time>
      </trkpt>
      <trkpt lat="48.60354" lon="-2.3276">
        <ele>25</ele>
        <time>2019-04-03T01:32:06Z</time>
      </trkpt>
      <trkpt lat="48.60338" lon="-2.32724">
        <ele>25</ele>
        <time>2019-04-03T01:33:06Z</time>
      </trkpt>
      <trkpt lat="48.60326" lon="-2.32687">
        <ele>25</ele>
        <time>2019-04-03T01:34:06Z</time>
      </trkpt>
      <trkpt lat="48.60316" lon="-2.3265">
        <ele>26</ele>
        <time>2019-04-03T01:35:06Z</time>
      </trkpt>
      <trkpt lat="48.60308" lon="-2.32613">
        <ele>26</ele>
        <time>2019-04-03T01:36:06Z</time>
      </trkpt>
      <trkpt lat="48.60303" lon="-2.32578">
        <ele>26</ele>
        <time>2019-04-03T01:37:06Z</time>
      </trkpt>
      <trkpt lat="48.60298" lon="-2.32521">
        <ele>26</ele>
        <time>2019-04-03T01:38:06Z</time>
      </trkpt>
      <trkpt lat="48.60293" lon="-2.32464">
        <ele>25</ele>
        <time>2019-04-03T01:39:06Z</time>
      </trkpt>
      <trkpt lat="48.6029" lon="-2.32414">
        <ele>23</ele>
        <time>2019-04-03T01:40:06Z</time>
      </trkpt>
      <trkpt lat="48.60284" lon="-2.32365">
        <ele>22</ele>
        <time>2019-04-03T01:41:06Z</time>
      </trkpt>
      <trkpt lat="48.60282" lon="-2.32334">
        <ele>21</ele>
        <time>2019-04-03T01:42:06Z</time>
      </trkpt>
      <trkpt lat="48.60278" lon="-2.32302">
        <ele>20</ele>
        <time>2019-04-03T01:43:06Z</time>
      </trkpt>
      <trkpt lat="48.60266" lon="-2.32265">
        <ele>19</ele>
        <time>2019-04-03T01:44:06Z</time>
      </trkpt>
      <trkpt lat="48.60256" lon="-2.32236">
        <ele>19</ele>
        <time>2019-04-03T01:45:06Z</time>
      </trkpt>
      <trkpt lat="48.60247" lon="-2.32209">
        <ele>19</ele>
        <time>2019-04-03T01:46:06Z</time>
      </trkpt>
      <trkpt lat="48.60242" lon="-2.32179">
        <ele>19</ele>
        <time>2019-04-03T01:47:06Z</time>
      </trkpt>
      <trkpt lat="48.60238" lon="-2.32148">
        <ele>19</ele>
        <time>2019-04-03T01:48:06Z</time>
      </trkpt>
      <trkpt lat="48.60237" lon="-2.32107">
        <ele>18</ele>
        <time>2019-04-03T01:49:06Z</time>
      </trkpt>
      <trkpt lat="48.60228" lon="-2.32081">
        <ele>18</ele>
        <time>2019-04-03T01:50:06Z</time>
      </trkpt>
      <trkpt lat="48.60218" lon="-2.32056">
        <ele>18</ele>
        <time>2019-04-03T01:51:06Z</time>
      </trkpt>
      <trkpt lat="48.60204" lon="-2.32026">
        <ele>18</ele>
        <time>2019-04-03T01:52:06Z</time>
      </trkpt>
      <trkpt lat="48.60194" lon="-2.32005">
        <ele>18</ele>
        <time>2019-04-03T01:53:06Z</time>
      </trkpt>
      <trkpt lat="48.60179" lon="-2.31983">
        <ele>18</ele>
        <time>2019-04-03T01:54:06Z</time>
      </trkpt>
      <trkpt lat="48.60157" lon="-2.31944">
        <ele>19</ele>
        <time>2019-04-03T01:55:06Z</time>
      </trkpt>
      <trkpt lat="48.60142" lon="-2.31908">
        <ele>20</ele>
        <time>2019-04-03T01:56:06Z</time>
      </trkpt>
      <trkpt lat="48.60126" lon="-2.3188">
        <ele>22</ele>
        <time>2019-04-03T01:57:06Z</time>
      </trkpt>
      <trkpt lat="48.60114" lon="-2.31829">
        <ele>24</ele>
        <time>2019-04-03T01:58:06Z</time>
      </trkpt>
      <trkpt lat="48.60125" lon="-2.31816">
        <ele>25</ele>
        <time>2019-04-03T01:59:06Z</time>
      </trkpt>
      <trkpt lat="48.60144" lon="-2.31792">
        <ele>27</ele>
        <time>2019-04-03T02:00:06Z</time>
      </trkpt>
      <trkpt lat="48.60157" lon="-2.31806">
        <ele>27</ele>
        <time>2019-04-03T02:01:06Z</time>
      </trkpt>
      <trkpt lat="48.60217" lon="-2.31822">
        <ele>25</ele>
        <time>2019-04-03T02:02:06Z</time>
      </trkpt>
      <trkpt lat="48.60237" lon="-2.31818">
        <ele>25</ele>
        <time>2019-04-03T02:03:06Z</time>
      </trkpt>
      <trkpt lat="48.60254" lon="-2.31813">
        <ele>25</ele>
        <time>2019-04-03T02:04:06Z</time>
      </trkpt>
      <trkpt lat="48.60296" lon="-2.31818">
        <ele>24</ele>
        <time>2019-04-03T02:05:06Z</time>
      </trkpt>
      <trkpt lat="48.60319" lon="-2.31816">
        <ele>23</ele>
        <time>2019-04-03T02:06:06Z</time>
      </trkpt>
      <trkpt lat="48.60367" lon="-2.31806">
        <ele>21</ele>
        <time>2019-04-03T02:07:06Z</time>
      </trkpt>
      <trkpt lat="48.60392" lon="-2.31788">
        <ele>21</ele>
        <time>2019-04-03T02:08:06Z</time>
      </trkpt>
      <trkpt lat="48.60409" lon="-2.31708">
        <ele>28</ele>
        <time>2019-04-03T02:09:06Z</time>
      </trkpt>
      <trkpt lat="48.60424" lon="-2.31694">
        <ele>29</ele>
        <time>2019-04-03T02:10:06Z</time>
      </trkpt>
      <trkpt lat="48.60446" lon="-2.31688">
        <ele>30</ele>
        <time>2019-04-03T02:11:06Z</time>
      </trkpt>
      <trkpt lat="48.60468" lon="-2.31648">
        <ele>33</ele>
        <time>2019-04-03T02:12:06Z</time>
      </trkpt>
      <trkpt lat="48.60488" lon="-2.31627">
        <ele>34</ele>
        <time>2019-04-03T02:13:06Z</time>
      </trkpt>
      <trkpt lat="48.60512" lon="-2.31609">
        <ele>34</ele>
        <time>2019-04-03T02:14:06Z</time>
      </trkpt>
      <trkpt lat="48.60553" lon="-2.31524">
        <ele>33</ele>
        <time>2019-04-03T02:15:06Z</time>
      </trkpt>
      <trkpt lat="48.60575" lon="-2.31436">
        <ele>34</ele>
        <time>2019-04-03T02:16:06Z</time>
      </trkpt>
      <trkpt lat="48.60606" lon="-2.31367">
        <ele>35</ele>
        <time>2019-04-03T02:17:06Z</time>
      </trkpt>
      <trkpt lat="48.60623" lon="-2.31344">
        <ele>36</ele>
        <time>2019-04-03T02:18:06Z</time>
      </trkpt>
      <trkpt lat="48.60544" lon="-2.31287">
        <ele>37</ele>
        <time>2019-04-03T02:19:06Z</time>
      </trkpt>
      <trkpt lat="48.60494" lon="-2.31231">
        <ele>39</ele>
        <time>2019-04-03T02:20:06Z</time>
      </trkpt>
      <trkpt lat="48.60471" lon="-2.31186">
        <ele>41</ele>
        <time>2019-04-03T02:21:06Z</time>
      </trkpt>
      <trkpt lat="48.60433" lon="-2.31148">
        <ele>44</ele>
        <time>2019-04-03T02:22:06Z</time>
      </trkpt>
      <trkpt lat="48.60414" lon="-2.31114">
        <ele>45</ele>
        <time>2019-04-03T02:23:06Z</time>
      </trkpt>
      <trkpt lat="48.60393" lon="-2.31074">
        <ele>45</ele>
        <time>2019-04-03T02:24:06Z</time>
      </trkpt>
      <trkpt lat="48.6037" lon="-2.31055">
        <ele>45</ele>
        <time>2019-04-03T02:25:06Z</time>
      </trkpt>
      <trkpt lat="48.6036" lon="-2.30976">
        <ele>46</ele>
        <time>2019-04-03T02:26:06Z</time>
      </trkpt>
      <trkpt lat="48.60364" lon="-2.30891">
        <ele>48</ele>
        <time>2019-04-03T02:27:06Z</time>
      </trkpt>
      <trkpt lat="48.60368" lon="-2.30791">
        <ele>50</ele>
        <time>2019-04-03T02:28:06Z</time>
      </trkpt>
      <trkpt lat="48.60332" lon="-2.30761">
        <ele>49</ele>
        <time>2019-04-03T02:29:06Z</time>
      </trkpt>
      <trkpt lat="48.60246" lon="-2.30725">
        <ele>48</ele>
        <time>2019-04-03T02:30:06Z</time>
      </trkpt>
      <trkpt lat="48.60223" lon="-2.3071">
        <ele>48</ele>
        <time>2019-04-03T02:31:06Z</time>
      </trkpt>
      <trkpt lat="48.60176" lon="-2.30668">
        <ele>50</ele>
        <time>2019-04-03T02:32:06Z</time>
      </trkpt>
      <trkpt lat="48.60143" lon="-2.30625">
        <ele>49</ele>
        <time>2019-04-03T02:33:06Z</time>
      </trkpt>
      <trkpt lat="48.60065" lon="-2.30601">
        <ele>49</ele>
        <time>2019-04-03T02:34:06Z</time>
      </trkpt>
      <trkpt lat="48.5999" lon="-2.30584">
        <ele>50</ele>
        <time>2019-04-03T02:35:06Z</time>
      </trkpt>
      <trkpt lat="48.5987" lon="-2.30565">
        <ele>52</ele>
        <time>2019-04-03T02:36:06Z</time>
      </trkpt>
      <trkpt lat="48.59794" lon="-2.30554">
        <ele>52</ele>
        <time>2019-04-03T02:37:06Z</time>
      </trkpt>
      <trkpt lat="48.598" lon="-2.3043">
        <ele>49</ele>
        <time>2019-04-03T02:38:06Z</time>
      </trkpt>
      <trkpt lat="48.59815" lon="-2.30343">
        <ele>47</ele>
        <time>2019-04-03T02:39:06Z</time>
      </trkpt>
      <trkpt lat="48.59823" lon="-2.30303">
        <ele>46</ele>
        <time>2019-04-03T02:40:06Z</time>
      </trkpt>
      <trkpt lat="48.59818" lon="-2.30258">
        <ele>46</ele>
        <time>2019-04-03T02:41:06Z</time>
      </trkpt>
      <trkpt lat="48.59773" lon="-2.30181">
        <ele>46</ele>
        <time>2019-04-03T02:42:06Z</time>
      </trkpt>
      <trkpt lat="48.59711" lon="-2.30099">
        <ele>47</ele>
        <time>2019-04-03T02:43:06Z</time>
      </trkpt>
      <trkpt lat="48.59683" lon="-2.30059">
        <ele>47</ele>
        <time>2019-04-03T02:44:06Z</time>
      </trkpt>
      <trkpt lat="48.59645" lon="-2.29959">
        <ele>45</ele>
        <time>2019-04-03T02:45:06Z</time>
      </trkpt>
      <trkpt lat="48.59618" lon="-2.29907">
        <ele>46</ele>
        <time>2019-04-03T02:46:06Z</time>
      </trkpt>
      <trkpt lat="48.59586" lon="-2.29851">
        <ele>45</ele>
        <time>2019-04-03T02:47:06Z</time>
      </trkpt>
      <trkpt lat="48.59574" lon="-2.29822">
        <ele>45</ele>
        <time>2019-04-03T02:48:06Z</time>
      </trkpt>
      <trkpt lat="48.59572" lon="-2.2979">
        <ele>45</ele>
        <time>2019-04-03T02:49:06Z</time>
      </trkpt>
      <trkpt lat="48.59567" lon="-2.29753">
        <ele>45</ele>
        <time>2019-04-03T02:50:06Z</time>
      </trkpt>
      <trkpt lat="48.59551" lon="-2.29724">
        <ele>45</ele>
        <time>2019-04-03T02:51:06Z</time>
      </trkpt>
      <trkpt lat="48.59532" lon="-2.29692">
        <ele>46</ele>
        <time>2019-04-03T02:52:06Z</time>
      </trkpt>
      <trkpt lat="48.59507" lon="-2.29627">
        <ele>48</ele>
        <time>2019-04-03T02:53:06Z</time>
      </trkpt>
      <trkpt lat="48.59496" lon="-2.29664">
        <ele>45</ele>
        <time>2019-04-03T02:54:06Z</time>
      </trkpt>
      <trkpt lat="48.59472" lon="-2.29672">
        <ele>47</ele>
        <time>2019-04-03T02:55:06Z</time>
      </trkpt>
      <trkpt lat="48.59464" lon="-2.29602">
        <ele>51</ele>
        <time>2019-04-03T02:56:06Z</time>
      </trkpt>
      <trkpt lat="48.59458" lon="-2.2957">
        <ele>53</ele>
        <time>2019-04-03T02:57:06Z</time>
      </trkpt>
      <trkpt lat="48.59432" lon="-2.29475">
        <ele>56</ele>
        <time>2019-04-03T02:58:06Z</time>
      </trkpt>
      <trkpt lat="48.59396" lon="-2.29489">
        <ele>56</ele>
        <time>2019-04-03T02:59:06Z</time>
      </trkpt>
      <trkpt lat="48.59376" lon="-2.29505">
        <ele>55</ele>
        <time>2019-04-03T03:00:06Z</time>
      </trkpt>
      <trkpt lat="48.59334" lon="-2.29532">
        <ele>55</ele>
        <time>2019-04-03T03:01:06Z</time>
      </trkpt>
      <trkpt lat="48.59314" lon="-2.29534">
        <ele>55</ele>
        <time>2019-04-03T03:02:06Z</time>
      </trkpt>
      <trkpt lat="48.593" lon="-2.29552">
        <ele>55</ele>
        <time>2019-04-03T03:03:06Z</time>
      </trkpt>
      <trkpt lat="48.59291" lon="-2.29551">
        <ele>55</ele>
        <time>2019-04-03T03:04:06Z</time>
      </trkpt>
      <trkpt lat="48.59254" lon="-2.29485">
        <ele>57</ele>
        <time>2019-04-03T03:05:06Z</time>
      </trkpt>
      <trkpt lat="48.59218" lon="-2.2942">
        <ele>57</ele>
        <time>2019-04-03T03:06:06Z</time>
      </trkpt>
      <trkpt lat="48.59195" lon="-2.29383">
        <ele>56</ele>
        <time>2019-04-03T03:07:06Z</time>
      </trkpt>
      <trkpt lat="48.59159" lon="-2.29367">
        <ele>54</ele>
        <time>2019-04-03T03:08:06Z</time>
      </trkpt>
      <trkpt lat="48.5913" lon="-2.29357">
        <ele>53</ele>
        <time>2019-04-03T03:09:06Z</time>
      </trkpt>
      <trkpt lat="48.59106" lon="-2.29346">
        <ele>52</ele>
        <time>2019-04-03T03:10:06Z</time>
      </trkpt>
      <trkpt lat="48.5909" lon="-2.29336">
        <ele>51</ele>
        <time>2019-04-03T03:11:06Z</time>
      </trkpt>
      <trkpt lat="48.59075" lon="-2.29319">
        <ele>51</ele>
        <time>2019-04-03T03:12:06Z</time>
      </trkpt>
      <trkpt lat="48.59" lon="-2.29266">
        <ele>49</ele>
        <time>2019-04-03T03:13:06Z</time>
      </trkpt>
      <trkpt lat="48.58958" lon="-2.29241">
        <ele>49</ele>
        <time>2019-04-03T03:14:06Z</time>
      </trkpt>
      <trkpt lat="48.58921" lon="-2.29199">
        <ele>49</ele>
        <time>2019-04-03T03:15:06Z</time>
      </trkpt>
      <trkpt lat="48.589" lon="-2.29172">
        <ele>49</ele>
        <time>2019-04-03T03:16:06Z</time>
      </trkpt>
      <trkpt lat="48.58882" lon="-2.29159">
        <ele>49</ele>
        <time>2019-04-03T03:17:06Z</time>
      </trkpt>
      <trkpt lat="48.58895" lon="-2.29129">
        <ele>49</ele>
        <time>2019-04-03T03:18:06Z</time>
      </trkpt>
      <trkpt lat="48.5895" lon="-2.29111">
        <ele>49</ele>
        <time>2019-04-03T03:19:06Z</time>
      </trkpt>
      <trkpt lat="48.59012" lon="-2.29083">
        <ele>50</ele>
        <time>2019-04-03T03:20:06Z</time>
      </trkpt>
      <trkpt lat="48.58997" lon="-2.29055">
        <ele>50</ele>
        <time>2019-04-03T03:21:06Z</time>
      </trkpt>
      <trkpt lat="48.5901" lon="-2.2901">
        <ele>51</ele>
        <time>2019-04-03T03:22:06Z</time>
      </trkpt>
      <trkpt lat="48.59014" lon="-2.28958">
        <ele>51</ele>
        <time>2019-04-03T03:23:06Z</time>
      </trkpt>
      <trkpt lat="48.59001" lon="-2.28917">
        <ele>51</ele>
        <time>2019-04-03T03:24:06Z</time>
      </trkpt>
      <trkpt lat="48.58984" lon="-2.2888">
        <ele>51</ele>
        <time>2019-04-03T03:25:06Z</time>
      </trkpt>
      <trkpt lat="48.58978" lon="-2.28852">
        <ele>51</ele>
        <time>2019-04-03T03:26:06Z</time>
      </trkpt>
      <trkpt lat="48.58868" lon="-2.28893">
        <ele>50</ele>
        <time>2019-04-03T03:27:06Z</time>
      </trkpt>
      <trkpt lat="48.58859" lon="-2.28847">
        <ele>51</ele>
        <time>2019-04-03T03:28:06Z</time>
      </trkpt>
      <trkpt lat="48.58843" lon="-2.28821">
        <ele>51</ele>
        <time>2019-04-03T03:29:06Z</time>
      </trkpt>
      <trkpt lat="48.58812" lon="-2.28765">
        <ele>53</ele>
        <time>2019-04-03T03:30:06Z</time>
      </trkpt>
      <trkpt lat="48.58806" lon="-2.28735">
        <ele>54</ele>
        <time>2019-04-03T03:31:06Z</time>
      </trkpt>
      <trkpt lat="48.58795" lon="-2.28693">
        <ele>54</ele>
        <time>2019-04-03T03:32:06Z</time>
      </trkpt>
      <trkpt lat="48.58806" lon="-2.2863">
        <ele>55</ele>
        <time>2019-04-03T03:34:06Z</time>
      </trkpt>
      <trkpt lat="48.58792" lon="-2.2859">
        <ele>55</ele>
        <time>2019-04-03T03:35:06Z</time>
      </trkpt>
      <trkpt lat="48.58808" lon="-2.28489">
        <ele>57</ele>
        <time>2019-04-03T03:36:06Z</time>
      </trkpt>
      <trkpt lat="48.58866" lon="-2.28428">
        <ele>58</ele>
        <time>2019-04-03T03:37:06Z</time>
      </trkpt>
      <trkpt lat="48.58884" lon="-2.2835">
        <ele>59</ele>
        <time>2019-04-03T03:38:06Z</time>
      </trkpt>
      <trkpt lat="48.58878" lon="-2.28257">
        <ele>60</ele>
        <time>2019-04-03T03:39:06Z</time>
      </trkpt>
      <trkpt lat="48.5885" lon="-2.28168">
        <ele>58</ele>
        <time>2019-04-03T03:40:06Z</time>
      </trkpt>
      <trkpt lat="48.58784" lon="-2.28175">
        <ele>57</ele>
        <time>2019-04-03T03:41:06Z</time>
      </trkpt>
      <trkpt lat="48.58755" lon="-2.2819">
        <ele>57</ele>
        <time>2019-04-03T03:42:06Z</time>
      </trkpt>
      <trkpt lat="48.5874" lon="-2.28208">
        <ele>57</ele>
        <time>2019-04-03T03:43:06Z</time>
      </trkpt>
      <trkpt lat="48.58717" lon="-2.2824">
        <ele>57</ele>
        <time>2019-04-03T03:44:06Z</time>
      </trkpt>
      <trkpt lat="48.58636" lon="-2.28287">
        <ele>58</ele>
        <time>2019-04-03T03:45:06Z</time>
      </trkpt>
      <trkpt lat="48.58605" lon="-2.28289">
        <ele>59</ele>
        <time>2019-04-03T03:46:06Z</time>
      </trkpt>
      <trkpt lat="48.58573" lon="-2.28267">
        <ele>59</ele>
        <time>2019-04-03T03:47:06Z</time>
      </trkpt>
      <trkpt lat="48.58531" lon="-2.28246">
        <ele>60</ele>
        <time>2019-04-03T03:48:06Z</time>
      </trkpt>
      <trkpt lat="48.58496" lon="-2.28242">
        <ele>60</ele>
        <time>2019-04-03T03:49:06Z</time>
      </trkpt>
      <trkpt lat="48.58388" lon="-2.28327">
        <ele>61</ele>
        <time>2019-04-03T03:50:06Z</time>
      </trkpt>
      <trkpt lat="48.58336" lon="-2.28383">
        <ele>61</ele>
        <time>2019-04-03T03:51:06Z</time>
      </trkpt>
      <trkpt lat="48.58314" lon="-2.28421">
        <ele>61</ele>
        <time>2019-04-03T03:52:06Z</time>
      </trkpt>
      <trkpt lat="48.58272" lon="-2.28401">
        <ele>62</ele>
        <time>2019-04-03T03:53:06Z</time>
      </trkpt>
      <trkpt lat="48.58233" lon="-2.28334">
        <ele>62</ele>
        <time>2019-04-03T03:54:06Z</time>
      </trkpt>
      <trkpt lat="48.58185" lon="-2.28229">
        <ele>64</ele>
        <time>2019-04-03T03:55:06Z</time>
      </trkpt>
      <trkpt lat="48.58129" lon="-2.28175">
        <ele>65</ele>
        <time>2019-04-03T03:56:06Z</time>
      </trkpt>
      <trkpt lat="48.58192" lon="-2.28103">
        <ele>66</ele>
        <time>2019-04-03T03:57:06Z</time>
      </trkpt>
      <trkpt lat="48.58213" lon="-2.28089">
        <ele>66</ele>
        <time>2019-04-03T03:58:06Z</time>
      </trkpt>
      <trkpt lat="48.58242" lon="-2.28076">
        <ele>66</ele>
        <time>2019-04-03T03:59:06Z</time>
      </trkpt>
      <trkpt lat="48.58266" lon="-2.28062">
        <ele>66</ele>
        <time>2019-04-03T04:00:06Z</time>
      </trkpt>
      <trkpt lat="48.5827" lon="-2.2804">
        <ele>66</ele>
        <time>2019-04-03T04:01:06Z</time>
      </trkpt>
      <trkpt lat="48.58261" lon="-2.27995">
        <ele>67</ele>
        <time>2019-04-03T04:02:06Z</time>
      </trkpt>
      <trkpt lat="48.58257" lon="-2.27954">
        <ele>66</ele>
        <time>2019-04-03T04:03:06Z</time>
      </trkpt>
      <trkpt lat="48.58261" lon="-2.2794">
        <ele>66</ele>
        <time>2019-04-03T04:04:06Z</time>
      </trkpt>
      <trkpt lat="48.58295" lon="-2.27919">
        <ele>65</ele>
        <time>2019-04-03T04:05:06Z</time>
      </trkpt>
      <trkpt lat="48.58273" lon="-2.27809">
        <ele>69</ele>
        <time>2019-04-03T04:06:06Z</time>
      </trkpt>
      <trkpt lat="48.58255" lon="-2.27708">
        <ele>71</ele>
        <time>2019-04-03T04:07:06Z</time>
      </trkpt>
      <trkpt lat="48.58239" lon="-2.27599">
        <ele>73</ele>
        <time>2019-04-03T04:08:06Z</time>
      </trkpt>
      <trkpt lat="48.58244" lon="-2.27501">
        <ele>75</ele>
        <time>2019-04-03T04:09:06Z</time>
      </trkpt>
      <trkpt lat="48.58398" lon="-2.27437">
        <ele>72</ele>
        <time>2019-04-03T04:10:06Z</time>
      </trkpt>
      <trkpt lat="48.58454" lon="-2.27402">
        <ele>72</ele>
        <time>2019-04-03T04:11:06Z</time>
      </trkpt>
      <trkpt lat="48.58494" lon="-2.27372">
        <ele>72</ele>
        <time>2019-04-03T04:12:06Z</time>
      </trkpt>
      <trkpt lat="48.58524" lon="-2.27338">
        <ele>73</ele>
        <time>2019-04-03T04:13:06Z</time>
      </trkpt>
      <trkpt lat="48.58593" lon="-2.27231">
        <ele>72</ele>
        <time>2019-04-03T04:14:06Z</time>
      </trkpt>
      <trkpt lat="48.58702" lon="-2.27061">
        <ele>73</ele>
        <time>2019-04-03T04:15:06Z</time>
      </trkpt>
      <trkpt lat="48.58734" lon="-2.27009">
        <ele>74</ele>
        <time>2019-04-03T04:16:06Z</time>
      </trkpt>
      <trkpt lat="48.58769" lon="-2.27004">
        <ele>75</ele>
        <time>2019-04-03T04:17:06Z</time>
      </trkpt>
      <trkpt lat="48.58866" lon="-2.26947">
        <ele>74</ele>
        <time>2019-04-03T04:18:06Z</time>
      </trkpt>
      <trkpt lat="48.58901" lon="-2.26932">
        <ele>75</ele>
        <time>2019-04-03T04:19:06Z</time>
      </trkpt>
      <trkpt lat="48.58963" lon="-2.26859">
        <ele>74</ele>
        <time>2019-04-03T04:20:06Z</time>
      </trkpt>
      <trkpt lat="48.59022" lon="-2.26769">
        <ele>73</ele>
        <time>2019-04-03T04:21:06Z</time>
      </trkpt>
      <trkpt lat="48.59033" lon="-2.26751">
        <ele>73</ele>
        <time>2019-04-03T04:22:06Z</time>
      </trkpt>
      <trkpt lat="48.59065" lon="-2.26722">
        <ele>72</ele>
        <time>2019-04-03T04:23:06Z</time>
      </trkpt>
      <trkpt lat="48.58968" lon="-2.26372">
        <ele>73</ele>
        <time>2019-04-03T04:24:06Z</time>
      </trkpt>
      <trkpt lat="48.58957" lon="-2.26332">
        <ele>73</ele>
        <time>2019-04-03T04:25:06Z</time>
      </trkpt>
      <trkpt lat="48.59006" lon="-2.26366">
        <ele>73</ele>
        <time>2019-04-03T04:26:06Z</time>
      </trkpt>
      <trkpt lat="48.59037" lon="-2.26373">
        <ele>73</ele>
        <time>2019-04-03T04:27:06Z</time>
      </trkpt>
      <trkpt lat="48.59041" lon="-2.26337">
        <ele>73</ele>
        <time>2019-04-03T04:28:06Z</time>
      </trkpt>
      <trkpt lat="48.59088" lon="-2.26281">
        <ele>73</ele>
        <time>2019-04-03T04:29:06Z</time>
      </trkpt>
      <trkpt lat="48.59135" lon="-2.26212">
        <ele>73</ele>
        <time>2019-04-03T04:30:06Z</time>
      </trkpt>
      <trkpt lat="48.59128" lon="-2.26143">
        <ele>74</ele>
        <time>2019-04-03T04:31:06Z</time>
      </trkpt>
      <trkpt lat="48.59131" lon="-2.26">
        <ele>75</ele>
        <time>2019-04-03T04:32:06Z</time>
      </trkpt>
      <trkpt lat="48.59233" lon="-2.26049">
        <ele>74</ele>
        <time>2019-04-03T04:33:06Z</time>
      </trkpt>
      <trkpt lat="48.59314" lon="-2.26069">
        <ele>72</ele>
        <time>2019-04-03T04:34:06Z</time>
      </trkpt>
      <trkpt lat="48.59464" lon="-2.25962">
        <ele>69</ele>
        <time>2019-04-03T04:35:06Z</time>
      </trkpt>
      <trkpt lat="48.59503" lon="-2.25958">
        <ele>70</ele>
        <time>2019-04-03T04:36:06Z</time>
      </trkpt>
      <trkpt lat="48.59535" lon="-2.25975">
        <ele>70</ele>
        <time>2019-04-03T04:37:06Z</time>
      </trkpt>
      <trkpt lat="48.59574" lon="-2.25996">
        <ele>70</ele>
        <time>2019-04-03T04:38:06Z</time>
      </trkpt>
      <trkpt lat="48.59633" lon="-2.2606">
        <ele>68</ele>
        <time>2019-04-03T04:39:06Z</time>
      </trkpt>
      <trkpt lat="48.59648" lon="-2.26084">
        <ele>67</ele>
        <time>2019-04-03T04:40:06Z</time>
      </trkpt>
      <trkpt lat="48.59677" lon="-2.2608">
        <ele>67</ele>
        <time>2019-04-03T04:41:06Z</time>
      </trkpt>
      <trkpt lat="48.59726" lon="-2.26107">
        <ele>66</ele>
        <time>2019-04-03T04:42:06Z</time>
      </trkpt>
      <trkpt lat="48.59742" lon="-2.2611">
        <ele>66</ele>
        <time>2019-04-03T04:43:06Z</time>
      </trkpt>
      <trkpt lat="48.5975" lon="-2.26108">
        <ele>66</ele>
        <time>2019-04-03T04:44:06Z</time>
      </trkpt>
      <trkpt lat="48.59753" lon="-2.26128">
        <ele>65</ele>
        <time>2019-04-03T04:45:06Z</time>
      </trkpt>
      <trkpt lat="48.5975" lon="-2.26146">
        <ele>65</ele>
        <time>2019-04-03T04:46:06Z</time>
      </trkpt>
      <trkpt lat="48.59745" lon="-2.26168">
        <ele>65</ele>
        <time>2019-04-03T04:47:06Z</time>
      </trkpt>
      <trkpt lat="48.59746" lon="-2.2618">
        <ele>65</ele>
        <time>2019-04-03T04:48:06Z</time>
      </trkpt>
      <trkpt lat="48.59778" lon="-2.26268">
        <ele>64</ele>
        <time>2019-04-03T04:49:06Z</time>
      </trkpt>
      <trkpt lat="48.59789" lon="-2.26288">
        <ele>63</ele>
        <time>2019-04-03T04:50:06Z</time>
      </trkpt>
      <trkpt lat="48.59807" lon="-2.26304">
        <ele>62</ele>
        <time>2019-04-03T04:51:06Z</time>
      </trkpt>
      <trkpt lat="48.59847" lon="-2.26325">
        <ele>61</ele>
        <time>2019-04-03T04:52:06Z</time>
      </trkpt>
      <trkpt lat="48.59865" lon="-2.26338">
        <ele>61</ele>
        <time>2019-04-03T04:53:06Z</time>
      </trkpt>
      <trkpt lat="48.59928" lon="-2.2641">
        <ele>60</ele>
        <time>2019-04-03T04:54:06Z</time>
      </trkpt>
      <trkpt lat="48.59945" lon="-2.2642">
        <ele>59</ele>
        <time>2019-04-03T04:55:06Z</time>
      </trkpt>
      <trkpt lat="48.59986" lon="-2.26436">
        <ele>57</ele>
        <time>2019-04-03T04:56:06Z</time>
      </trkpt>
      <trkpt lat="48.60011" lon="-2.26455">
        <ele>56</ele>
        <time>2019-04-03T04:57:06Z</time>
      </trkpt>
      <trkpt lat="48.60038" lon="-2.26486">
        <ele>55</ele>
        <time>2019-04-03T04:58:06Z</time>
      </trkpt>
      <trkpt lat="48.60091" lon="-2.26509">
        <ele>54</ele>
        <time>2019-04-03T04:59:06Z</time>
      </trkpt>
      <trkpt lat="48.60115" lon="-2.26505">
        <ele>56</ele>
        <time>2019-04-03T05:00:06Z</time>
      </trkpt>
      <trkpt lat="48.60157" lon="-2.26474">
        <ele>59</ele>
        <time>2019-04-03T05:01:06Z</time>
      </trkpt>
      <trkpt lat="48.60302" lon="-2.26437">
        <ele>60</ele>
        <time>2019-04-03T05:02:06Z</time>
      </trkpt>
      <trkpt lat="48.6045" lon="-2.26392">
        <ele>61</ele>
        <time>2019-04-03T05:03:06Z</time>
      </trkpt>
      <trkpt lat="48.60498" lon="-2.2639">
        <ele>61</ele>
        <time>2019-04-03T05:04:06Z</time>
      </trkpt>
      <trkpt lat="48.6057" lon="-2.26374">
        <ele>62</ele>
        <time>2019-04-03T05:05:06Z</time>
      </trkpt>
      <trkpt lat="48.60603" lon="-2.26373">
        <ele>62</ele>
        <time>2019-04-03T05:06:06Z</time>
      </trkpt>
      <trkpt lat="48.60629" lon="-2.2638">
        <ele>62</ele>
        <time>2019-04-03T05:07:06Z</time>
      </trkpt>
      <trkpt lat="48.6067" lon="-2.26396">
        <ele>63</ele>
        <time>2019-04-03T05:08:06Z</time>
      </trkpt>
      <trkpt lat="48.60687" lon="-2.26397">
        <ele>63</ele>
        <time>2019-04-03T05:09:06Z</time>
      </trkpt>
      <trkpt lat="48.60704" lon="-2.26395">
        <ele>63</ele>
        <time>2019-04-03T05:10:06Z</time>
      </trkpt>
      <trkpt lat="48.60733" lon="-2.26402">
        <ele>63</ele>
        <time>2019-04-03T05:11:06Z</time>
      </trkpt>
      <trkpt lat="48.60793" lon="-2.26424">
        <ele>65</ele>
        <time>2019-04-03T05:12:06Z</time>
      </trkpt>
      <trkpt lat="48.60834" lon="-2.26432">
        <ele>65</ele>
        <time>2019-04-03T05:13:06Z</time>
      </trkpt>
      <trkpt lat="48.60903" lon="-2.26443">
        <ele>65</ele>
        <time>2019-04-03T05:14:06Z</time>
      </trkpt>
      <trkpt lat="48.61054" lon="-2.26423">
        <ele>61</ele>
        <time>2019-04-03T05:16:06Z</time>
      </trkpt>
      <trkpt lat="48.61101" lon="-2.26434">
        <ele>60</ele>
        <time>2019-04-03T05:17:06Z</time>
      </trkpt>
      <trkpt lat="48.6116" lon="-2.26467">
        <ele>59</ele>
        <time>2019-04-03T05:18:06Z</time>
      </trkpt>
      <trkpt lat="48.61209" lon="-2.26489">
        <ele>59</ele>
        <time>2019-04-03T05:19:06Z</time>
      </trkpt>
      <trkpt lat="48.61242" lon="-2.26492">
        <ele>60</ele>
        <time>2019-04-03T05:20:06Z</time>
      </trkpt>
      <trkpt lat="48.61302" lon="-2.26449">
        <ele>60</ele>
        <time>2019-04-03T05:21:06Z</time>
      </trkpt>
      <trkpt lat="48.61364" lon="-2.26401">
        <ele>60</ele>
        <time>2019-04-03T05:22:06Z</time>
      </trkpt>
      <trkpt lat="48.61389" lon="-2.26381">
        <ele>61</ele>
        <time>2019-04-03T05:23:06Z</time>
      </trkpt>
      <trkpt lat="48.61448" lon="-2.26339">
        <ele>62</ele>
        <time>2019-04-03T05:24:06Z</time>
      </trkpt>
      <trkpt lat="48.61493" lon="-2.2632">
        <ele>62</ele>
        <time>2019-04-03T05:25:06Z</time>
      </trkpt>
      <trkpt lat="48.61536" lon="-2.26303">
        <ele>62</ele>
        <time>2019-04-03T05:26:06Z</time>
      </trkpt>
      <trkpt lat="48.61581" lon="-2.263">
        <ele>61</ele>
        <time>2019-04-03T05:27:06Z</time>
      </trkpt>
      <trkpt lat="48.61625" lon="-2.26301">
        <ele>61</ele>
        <time>2019-04-03T05:28:06Z</time>
      </trkpt>
      <trkpt lat="48.61653" lon="-2.26307">
        <ele>61</ele>
        <time>2019-04-03T05:29:06Z</time>
      </trkpt>
      <trkpt lat="48.61648" lon="-2.26227">
        <ele>60</ele>
        <time>2019-04-03T05:30:06Z</time>
      </trkpt>
      <trkpt lat="48.61639" lon="-2.26136">
        <ele>60</ele>
        <time>2019-04-03T05:31:06Z</time>
      </trkpt>
      <trkpt lat="48.61631" lon="-2.26071">
        <ele>61</ele>
        <time>2019-04-03T05:32:06Z</time>
      </trkpt>
      <trkpt lat="48.61668" lon="-2.26077">
        <ele>60</ele>
        <time>2019-04-03T05:33:06Z</time>
      </trkpt>
      <trkpt lat="48.61764" lon="-2.2606">
        <ele>60</ele>
        <time>2019-04-03T05:34:06Z</time>
      </trkpt>
      <trkpt lat="48.61879" lon="-2.2605">
        <ele>61</ele>
        <time>2019-04-03T05:35:06Z</time>
      </trkpt>
      <trkpt lat="48.61973" lon="-2.26042">
        <ele>59</ele>
        <time>2019-04-03T05:36:06Z</time>
      </trkpt>
      <trkpt lat="48.62018" lon="-2.26026">
        <ele>58</ele>
        <time>2019-04-03T05:37:06Z</time>
      </trkpt>
      <trkpt lat="48.62062" lon="-2.26005">
        <ele>58</ele>
        <time>2019-04-03T05:38:06Z</time>
      </trkpt>
      <trkpt lat="48.62093" lon="-2.25972">
        <ele>58</ele>
        <time>2019-04-03T05:39:06Z</time>
      </trkpt>
      <trkpt lat="48.62114" lon="-2.25944">
        <ele>57</ele>
        <time>2019-04-03T05:40:06Z</time>
      </trkpt>
      <trkpt lat="48.62168" lon="-2.25903">
        <ele>56</ele>
        <time>2019-04-03T05:41:06Z</time>
      </trkpt>
      <trkpt lat="48.622" lon="-2.25874">
        <ele>53</ele>
        <time>2019-04-03T05:42:06Z</time>
      </trkpt>
      <trkpt lat="48.62215" lon="-2.25876">
        <ele>52</ele>
        <time>2019-04-03T05:43:06Z</time>
      </trkpt>
      <trkpt lat="48.62223" lon="-2.25896">
        <ele>52</ele>
        <time>2019-04-03T05:44:06Z</time>
      </trkpt>
      <trkpt lat="48.62295" lon="-2.25863">
        <ele>48</ele>
        <time>2019-04-03T05:45:06Z</time>
      </trkpt>
      <trkpt lat="48.62302" lon="-2.25871">
        <ele>47</ele>
        <time>2019-04-03T05:46:06Z</time>
      </trkpt>
      <trkpt lat="48.62307" lon="-2.25912">
        <ele>46</ele>
        <time>2019-04-03T05:47:06Z</time>
      </trkpt>
      <trkpt lat="48.62336" lon="-2.25986">
        <ele>44</ele>
        <time>2019-04-03T05:48:06Z</time>
      </trkpt>
      <trkpt lat="48.6235" lon="-2.2602">
        <ele>44</ele>
        <time>2019-04-03T05:49:06Z</time>
      </trkpt>
      <trkpt lat="48.6237" lon="-2.25942">
        <ele>41</ele>
        <time>2019-04-03T05:51:06Z</time>
      </trkpt>
      <trkpt lat="48.62424" lon="-2.2593">
        <ele>36</ele>
        <time>2019-04-03T05:52:06Z</time>
      </trkpt>
      <trkpt lat="48.62433" lon="-2.25921">
        <ele>35</ele>
        <time>2019-04-03T05:53:06Z</time>
      </trkpt>
      <trkpt lat="48.62436" lon="-2.25909">
        <ele>35</ele>
        <time>2019-04-03T05:54:06Z</time>
      </trkpt>
      <trkpt lat="48.6246" lon="-2.25899">
        <ele>34</ele>
        <time>2019-04-03T05:55:06Z</time>
      </trkpt>
      <trkpt lat="48.62511" lon="-2.25875">
        <ele>31</ele>
        <time>2019-04-03T05:56:06Z</time>
      </trkpt>
      <trkpt lat="48.62542" lon="-2.25866">
        <ele>28</ele>
        <time>2019-04-03T05:58:06Z</time>
      </trkpt>
      <trkpt lat="48.62568" lon="-2.25853">
        <ele>25</ele>
        <time>2019-04-03T05:59:06Z</time>
      </trkpt>
      <trkpt lat="48.6259" lon="-2.25825">
        <ele>23</ele>
        <time>2019-04-03T06:00:06Z</time>
      </trkpt>
      <trkpt lat="48.62604" lon="-2.25775">
        <ele>22</ele>
        <time>2019-04-03T06:01:06Z</time>
      </trkpt>
      <trkpt lat="48.62612" lon="-2.2574">
        <ele>21</ele>
        <time>2019-04-03T06:02:06Z</time>
      </trkpt>
      <trkpt lat="48.62619" lon="-2.25705">
        <ele>19</ele>
        <time>2019-04-03T06:03:06Z</time>
      </trkpt>
      <trkpt lat="48.62632" lon="-2.25717">
        <ele>17</ele>
        <time>2019-04-03T06:04:06Z</time>
      </trkpt>
      <trkpt lat="48.62658" lon="-2.25763">
        <ele>15</ele>
        <time>2019-04-03T06:05:06Z</time>
      </trkpt>
      <trkpt lat="48.62717" lon="-2.25866">
        <ele>18</ele>
        <time>2019-04-03T06:06:06Z</time>
      </trkpt>
      <trkpt lat="48.62758" lon="-2.25803">
        <ele>14</ele>
        <time>2019-04-03T06:07:06Z</time>
      </trkpt>
      <trkpt lat="48.62796" lon="-2.25727">
        <ele>11</ele>
        <time>2019-04-03T06:08:06Z</time>
      </trkpt>
      <trkpt lat="48.62866" lon="-2.2556">
        <ele>7</ele>
        <time>2019-04-03T06:09:06Z</time>
      </trkpt>
      <trkpt lat="48.62877" lon="-2.25522">
        <ele>7</ele>
        <time>2019-04-03T06:10:06Z</time>
      </trkpt>
      <trkpt lat="48.62883" lon="-2.25471">
        <ele>7</ele>
        <time>2019-04-03T06:11:06Z</time>
      </trkpt>
      <trkpt lat="48.62931" lon="-2.25391">
        <ele>9</ele>
        <time>2019-04-03T06:12:06Z</time>
      </trkpt>
      <trkpt lat="48.62966" lon="-2.25304">
        <ele>8</ele>
        <time>2019-04-03T06:13:06Z</time>
      </trkpt>
      <trkpt lat="48.6286" lon="-2.25205">
        <ele>8</ele>
        <time>2019-04-03T06:14:06Z</time>
      </trkpt>
      <trkpt lat="48.62777" lon="-2.25116">
        <ele>8</ele>
        <time>2019-04-03T06:15:06Z</time>
      </trkpt>
      <trkpt lat="48.62736" lon="-2.25266">
        <ele>7</ele>
        <time>2019-04-03T06:16:06Z</time>
      </trkpt>
    </trkseg>
  </trk>
</gpx>